logo
Games tagged Tactical RPG
# Game Release date
Price
Score rank
(Userscore / Metascore)
Owners
Players
Playtime (Median)
Developer(s)
Publisher(s)
1 Divinity: Original Sin 2 - Definitive Edition Sep 14, 2017 $17.99N/A (N/A/93%)5,000,000 .. 10,000,0001.99%14:47 (23:53)Larian StudiosLarian Studios
2 Wildermyth Jun 15, 2021 $18.74N/A (N/A/87%)200,000 .. 500,0003.33%00:12 (00:04)Worldwalker Games LLCWorldwalker Games LLC, WhisperGames
3 RimWorld Oct 17, 2018 $31.49N/A (N/A/87%)2,000,000 .. 5,000,0009.83%18:18 (12:55)Ludeon StudiosLudeon Studios
4 Mass Effect Legendary Edition May 14, 2021 $24.59N/A (N/A/86%)500,000 .. 1,000,0003.92%21:41 (14:27)BioWareElectronic Arts
5 Planescape: Torment: Enhanced Edition Apr 11, 2017 $5.99N/A (N/A/85%)200,000 .. 500,0003.33%01:30 (00:30)BeamdogBeamdog
6 The Legend of Heroes: Trails in the Sky Jul 29, 2014 $9.99N/A (N/A/85%)200,000 .. 500,0000%00:00 (00:00)Nihon FalcomXSEED Games, Marvelous USA, Inc.
7 Fuga: Melodies of Steel Jul 28, 2021 $27.99N/A (N/A/84%)20,000 .. 50,0000%00:00 (00:00)CyberConnect2CyberConnect2
8 Pathfinder: Wrath of the Righteous Sep 2, 2021 $24.99N/A (N/A/83%)1,000,000 .. 2,000,0004%08:18 (02:46)Owlcat GamesMETA Publishing, Owlcat Games
9 Valkyria Chronicles 4 Complete Edition Sep 25, 2018 $9.99N/A (N/A/83%)200,000 .. 500,0002.56%01:24 (00:28)SEGASEGA
10 Silent Storm Gold Edition Oct 2, 2013 $2.49N/A (N/A/83%)100,000 .. 200,0000%00:00 (00:00)NivalTHQ Nordic
11 Gloomhaven Oct 20, 2021 $26.24N/A (N/A/82%)200,000 .. 500,0000%00:00 (00:00)Flaming Fowl StudiosAsmodee Digital
12 Fell Seal: Arbiter's Mark Apr 30, 2019 $7.49N/A (N/A/82%)200,000 .. 500,0000%00:00 (00:00)6 Eyes StudioFulqrum Publishing
13 Wargroove Feb 1, 2019 $7.99N/A (N/A/82%)500,000 .. 1,000,0000%00:00 (00:00)ChucklefishChucklefish
14 The Banner Saga 3 Jul 26, 2018 $7.99N/A (N/A/82%)100,000 .. 200,0000%00:00 (00:00)StoicStoic Studio
15 The Banner Saga 2 Apr 19, 2016 $5.99N/A (N/A/82%)200,000 .. 500,0000%00:00 (00:00)StoicStoic Studio
16 Dragon Age II: Ultimate Edition Jun 4, 2020 $7.49N/A (N/A/82%)500,000 .. 1,000,0000%00:00 (00:00)BioWareElectronic Arts
17 King's Bounty: Armored Princess Nov 19, 2009 $2.49N/A (N/A/82%)500,000 .. 1,000,0000%00:00 (00:00)Katauri InteractiveFulqrum Publishing
18 Fallout Tactics: Brotherhood of Steel Mar 1, 2001 $2.99N/A (N/A/82%)1,000,000 .. 2,000,0000%00:00 (00:00)14° EastBethesda Softworks
19 Warhammer 40,000: Chaos Gate - Daemonhunters May 5, 2022 $40.49N/A (N/A/81%)100,000 .. 200,00014.29%00:03 (00:01)Complex GamesFrontier Foundry
20 Trials of Fire Apr 9, 2021 $9.99N/A (N/A/81%)100,000 .. 200,0000%00:00 (00:00)Whatboy GamesWhatboy Games
21 Disgaea 2 PC Jan 30, 2017 $3.99N/A (N/A/81%)100,000 .. 200,0000%00:00 (00:00)Nippon Ichi Software, Inc.NIS America, Inc.
22 The Age of Decadence Oct 14, 2015 $3.24N/A (N/A/81%)200,000 .. 500,0000%00:00 (00:00)Iron Tower StudioIron Tower Studio
23 Expeditions: Rome Jan 20, 2022 $33.74N/A (N/A/80%)100,000 .. 200,0000%00:00 (00:00)Logic ArtistsTHQ Nordic
24 Dark Deity Jun 15, 2021 $14.99N/A (N/A/80%)100,000 .. 200,00050%00:48 (00:24)Sword & Axe LLCFreedom Games
25 Wintermoor Tactics Club May 5, 2020 $5.99N/A (N/A/80%)20,000 .. 50,0000%00:00 (00:00)EVC GamesVersus Evil
26 Battle Brothers Mar 24, 2017 $14.99N/A (N/A/80%)500,000 .. 1,000,00014.29%15:05 (09:23)Overhype StudiosOverhype Studios
27 Card Hunter Jul 13, 2015 FreeN/A (N/A/80%)1,000,000 .. 2,000,0000%00:00 (00:00)The Knights of UnityThe Knights of Unity
28 The Banner Saga Jan 14, 2014 $3.99N/A (N/A/80%)500,000 .. 1,000,0000%00:00 (00:00)StoicStoic Studio
29 Fallen Enchantress: Legendary Heroes May 22, 2013 $9.99N/A (N/A/80%)200,000 .. 500,0000%00:00 (00:00)Stardock EntertainmentStardock Entertainment
30 Midnight Protocol Oct 13, 2021 $10.04N/A (N/A/79%)20,000 .. 50,0000%00:00 (00:00)LuGus StudiosIceberg Interactive
31 King's Bounty: The Legend Sep 23, 2008 $1.74N/A (N/A/79%)200,000 .. 500,0000%00:00 (00:00)Fulqrum PublishingFulqrum Publishing
32 King's Bounty: Crossworlds Sep 17, 2010 $3.74N/A (N/A/78%)200,000 .. 500,0000%00:00 (00:00)Katauri InteractiveFulqrum Publishing
33 Star Renegades Sep 8, 2020 $9.99N/A (N/A/77%)200,000 .. 500,0000%00:00 (00:00)Massive Damage, Inc.Raw Fury
34 Weird West Mar 31, 2022 $29.99N/A (N/A/76%)50,000 .. 100,0000%00:00 (00:00)WolfEye StudiosDevolver Digital
35 Stirring Abyss Oct 29, 2020 $12.49N/A (N/A/76%)0 .. 20,0000%00:00 (00:00)Sleepy Sentry, K-ProjectSlitherine Ltd.
36 Vaporum Sep 28, 2017 $4.99N/A (N/A/75%)0 .. 20,0000%00:00 (00:00)Fatbot Games, s. r. o.Fatbot Games, s. r. o.
37 Armello Sep 1, 2015 $4.99N/A (N/A/75%)1,000,000 .. 2,000,0000%00:00 (00:00)League of GeeksLeague of Geeks
38 Chroma Squad Apr 30, 2015 $5.09N/A (N/A/75%)200,000 .. 500,0000%00:00 (00:00)Behold StudiosBehold Studios
39 Phoenix Point: Year One Edition Dec 3, 2020 $14.99N/A (N/A/74%)200,000 .. 500,0005.26%03:20 (01:06)Snapshot Games Inc.Snapshot Games Inc.
40 Fort Triumph Apr 16, 2020 $9.99N/A (N/A/74%)50,000 .. 100,0000%00:00 (00:00)CookieByte EntertainmentAll in! Games
41 Expeditions: Viking Apr 27, 2017 $7.49N/A (N/A/74%)200,000 .. 500,0000%00:00 (00:00)Logic ArtistsTHQ Nordic
42 Disgaea PC Feb 24, 2016 $3.99N/A (N/A/74%)500,000 .. 1,000,0000%00:00 (00:00)Nippon Ichi Software, Inc.NIS America, Inc.
43 Mordheim: City of the Damned Nov 19, 2015 $1.99N/A (N/A/74%)200,000 .. 500,0000%00:00 (00:00)Rogue FactorNacon
44 Blackguards 2 Jan 20, 2015 $0.99N/A (N/A/74%)100,000 .. 200,0000%00:00 (00:00)Daedalic EntertainmentDaedalic Entertainment
45 Eador. Masters of the Broken World Apr 19, 2013 $4.99N/A (N/A/74%)1,000,000 .. 2,000,0000%00:00 (00:00)Snowbird GamesSnowbird Games
46 King's Bounty: Warriors of the North Oct 25, 2012 $2.49N/A (N/A/74%)200,000 .. 500,0000%00:00 (00:00)Fulqrum PublishingFulqrum Publishing
47 Popup Dungeon Aug 12, 2020 $14.99N/A (N/A/73%)20,000 .. 50,0000%00:00 (00:00)Triple.B.TitlesHumble Games
48 Nowhere Prophet Jul 19, 2019 $12.49N/A (N/A/73%)50,000 .. 100,0000%00:00 (00:00)Sharkbomb StudiosNo More Robots
49 Halcyon 6: Starbase Commander (LIGHTSPEED EDITION) Aug 10, 2017 $14.99N/A (N/A/73%)100,000 .. 200,0000%00:00 (00:00)Massive Damage, Inc.Massive Damage, Inc.
50 Children of Zodiarcs Jul 18, 2017 $5.39N/A (N/A/73%)20,000 .. 50,0000%00:00 (00:00)Cardboard UtopiaSquare Enix
51 Starpoint Gemini Warlords May 23, 2017 $6.99N/A (N/A/73%)200,000 .. 500,0000%00:00 (00:00)Little Green Men GamesIceberg Interactive
52 Regalia: Of Men and Monarchs May 18, 2017 $4.59N/A (N/A/73%)50,000 .. 100,0000%00:00 (00:00)Pixelated MilkPixelated Milk
53 MASSIVE CHALICE Jun 1, 2015 $4.99N/A (N/A/73%)50,000 .. 100,0000%00:00 (00:00)Double Fine ProductionsDouble Fine Productions
54 Earth 2160 Apr 1, 2006 $1.99N/A (N/A/73%)500,000 .. 1,000,0000%00:00 (00:00)Reality Pump StudiosTopware Interactive, ACE
55 Aarklash: Legacy Sep 12, 2013 $15.99N/A (N/A/72%)100,000 .. 200,0000%00:00 (00:00)Cyanide StudioNacon
56 Viola: The Heroine's Melody Feb 17, 2021 $9.89N/A (N/A/71%)0 .. 20,0000%00:00 (00:00)Jelle van DoorneJelle van Doorne
57 SD GUNDAM G GENERATION CROSS RAYS Nov 27, 2019 $14.99N/A (N/A/71%)500,000 .. 1,000,0000%00:00 (00:00)TOM CREATE, 株式会社トムクリエイトBANDAI NAMCO Entertainment, 株式会社バンダイナムコエンターテインメント
58 Halcyon 6: Starbase Commander Sep 8, 2016 $14.99N/A (N/A/71%)100,000 .. 200,0000%00:00 (00:00)Massive Damage, Inc.Massive Damage, Inc.
59 Legends of Eisenwald Jul 2, 2015 $4.99N/A (N/A/71%)50,000 .. 100,0000%00:00 (00:00)Aterdux EntertainmentAterdux Entertainment
60 TINY METAL: FULL METAL RUMBLE Jul 11, 2019 $6.74N/A (N/A/70%)0 .. 20,0000%00:00 (00:00)AREA 35, Inc.AREA 34, Inc.
61 Starpoint Gemini 2 Sep 26, 2014 $5.24N/A (N/A/70%)500,000 .. 1,000,0000%00:00 (00:00)Little Green Men GamesLittle Green Men Games
62 Vaporum: Lockdown Sep 15, 2020 $8.99N/A (N/A/68%)0 .. 20,0000%00:00 (00:00)Fatbot Games, s. r. o.Fatbot Games, s. r. o.
63 Pathway Apr 11, 2019 $6.39N/A (N/A/68%)200,000 .. 500,0000%00:00 (00:00)RobotalityChucklefish
64 WARTILE Feb 8, 2018 $6.99N/A (N/A/68%)50,000 .. 100,0000%00:00 (00:00)Playwood ProjectDeck13, WhisperGames
65 TINY METAL Dec 21, 2017 $12.49N/A (N/A/68%)0 .. 20,0000%00:00 (00:00)AREA 35, Inc.Sony Music Entertainment (Japan) Inc. / UNTIES
66 Blackguards Jan 22, 2014 $0.99N/A (N/A/68%)500,000 .. 1,000,0000%00:00 (00:00)Daedalic EntertainmentDaedalic Entertainment
67 Fallen Legion: Rise to Glory Jan 5, 2018 $4.49N/A (N/A/66%)0 .. 20,0000%00:00 (00:00)YummyYummyTummy, MintsphereYummyYummyTummy
68 Ash of Gods: Redemption Mar 23, 2018 $6.24N/A (N/A/65%)500,000 .. 1,000,0000%00:00 (00:00)AurumDustAurumDust, WhisperGames
69 Masquerada: Songs and Shadows Sep 30, 2016 $5.99N/A (N/A/64%)100,000 .. 200,0000%00:00 (00:00)Witching Hour StudiosYsbryd Games
70 Has-Been Heroes Mar 27, 2017 $19.99N/A (N/A/63%)50,000 .. 100,0000%00:00 (00:00)FrozenbyteGameTrust Games
71 Jagged Alliance: Crossfire Aug 24, 2012 $3.74N/A (N/A/63%)100,000 .. 200,0000%00:00 (00:00)Coreplay GmbHTHQ Nordic
72 WARSAW Oct 2, 2019 $8.15N/A (N/A/62%)20,000 .. 50,0005.71%03:00 (01:59)Pixelated MilkPixelated Milk, gaming company
73 Jagged Alliance - Back in Action Feb 8, 2012 $4.99N/A (N/A/62%)200,000 .. 500,0000%00:00 (00:00)Coreplay GmbH, Bigmoon StudiosTHQ Nordic
74 Prince of Qin Oct 26, 2021 $1.49N/A (N/A/61%)0 .. 20,0000%00:00 (00:00)Object SoftwareStrategy First
75 The Dwarves Dec 1, 2016 $9.99N/A (N/A/61%)200,000 .. 500,0000%00:00 (00:00)KING ArtTHQ Nordic, EuroVideo Medien
76 Kingdom Under Fire: The Crusaders Feb 28, 2020 $9.99N/A (N/A/60%)20,000 .. 50,0000%00:00 (00:00)BluesideBlueside, Incredi Soft
77 Jagged Alliance: Rage! Dec 6, 2018 $3.99N/A (N/A/59%)0 .. 20,0000%00:00 (00:00)Cliffhanger ProductionsHandyGames
78 Prime World: Defenders Jun 5, 2013 $2.99N/A (N/A/58%)100,000 .. 200,0000%00:00 (00:00)NivalNival
79 Forged of Blood Aug 1, 2019 $29.99N/A (N/A/57%)0 .. 20,0000%00:00 (00:00)Critical ForgeCritical Forge
80 City of the Shroud Aug 9, 2018 N/AN/A (N/A/57%)0 .. 20,0000%00:00 (00:00)Abyssal Arts Ltd.Abyssal Arts Ltd.
81 Tears of Avia Oct 15, 2020 $8.99N/A (N/A/56%)50,000 .. 100,0000%00:00 (00:00)CooCooSqueaky GamesPQube
82 The Waylanders Feb 2, 2022 $22.74N/A (N/A/53%)0 .. 20,0000%00:00 (00:00)GATO STUDIOGATO STUDIO
83 Grimshade Mar 26, 2019 $19.99N/A (N/A/53%)0 .. 20,0000%00:00 (00:00)TALEROCKAsterion Games
84 Confrontation Apr 4, 2012 $9.99N/A (N/A/51%)100,000 .. 200,0000%00:00 (00:00)Cyanide StudioFocus Home Interactive
85 Line Of Defense Tactics - Tactical Advantage Mar 17, 2014 $4.99N/A (N/A/47%)0 .. 20,0000%00:00 (00:00)3000AD3000AD
86 Requiescat Oct 2021 N/AN/A (N/A)20,000 .. 50,0000%00:00 (00:00)GameBarley CO.,LTD.GameBarley CO.,LTD.
87 Eternal Dreamers Jul 24, 2021 FreeN/A (N/A)100,000 .. 200,0000%00:00 (00:00)Studio BiestStudio Biest
88 Paradigm Shift May 31, 2021 FreeN/A (N/A)20,000 .. 50,0000%00:00 (00:00)PixieBixxie, NUU-Pro, telosLunar Boon
89 After Off War May 21, 2021 N/AN/A (N/A)0 .. 20,0000%00:00 (00:00)DAY DAY UP GAMEDAY DAY UP GAME
90 Giants May 7, 2021 FreeN/A (N/A)200,000 .. 500,0000%00:00 (00:00)Singta inc.Singta Inc.
91 Dudes on a Map: Virtual Grid Paper Apr 20, 2021 FreeN/A (N/A)0 .. 20,0000%00:00 (00:00)Big Sky Software LLCBig Sky Software LLC
92 全战天下 Apr 12, 2021 FreeN/A (N/A)20,000 .. 50,0000%00:00 (00:00)全战天下全战天下
93 Magicians' Legacy: Prologue Apr 6, 2021 FreeN/A (N/A)50,000 .. 100,0000%00:00 (00:00)Greenolor StudioGreenolor Studio
94 Heart of Enya Mar 26, 2021 FreeN/A (N/A)20,000 .. 50,0000%00:00 (00:00)Team BapyTeam Bapy
95 Condors Vs Ocelots Mar 19, 2021 FreeN/A (N/A)0 .. 20,0000%00:00 (00:00)Titanomachy StudiosTitanomachy Studios
96 Quintaesencia Mar 5, 2021 FreeN/A (N/A)20,000 .. 50,0000%00:00 (00:00)AngelusAngelus
97 Realm Engine | Virtual Tabletop Mar 5, 2021 FreeN/A (N/A)0 .. 20,0000%00:00 (00:00)Blake JohnsonPixel Ghost
98 Wonhon: Prologue Feb 28, 2021 FreeN/A (N/A)200,000 .. 500,0000%00:00 (00:00)BUSAN SANAI GAMESSuper.com
99 Wartune Reborn Feb 26, 2021 FreeN/A (N/A)50,000 .. 100,0000%00:00 (00:00)7Road7Road
100 Sid Classic Feb 18, 2021 FreeN/A (N/A)20,000 .. 50,0000%00:00 (00:00)Singta inc.Singta inc.
101 修真之路 Feb 6, 2021 FreeN/A (N/A)0 .. 20,0000%00:00 (00:00)游韵游戏网络公司游韵游戏网络公司
102 Warriors: Rise to Glory! Online Multiplayer Open Beta Jan 28, 2021 N/AN/A (N/A)50,000 .. 100,0000%00:00 (00:00)Gavra GamesGavra Games
103 Space Cats Tactics: Prologue Jan 1, 2021 FreeN/A (N/A)20,000 .. 50,0000%00:00 (00:00)Mitzi GamesMitzi Games
104 Slaves of Magic prelude Dec 14, 2020 N/AN/A (N/A)50,000 .. 100,0000%00:00 (00:00)Amethyst DreamersAmethyst Dreamers
105 Grid Fight - Mask of the Goddess - First Boot Dec 7, 2020 N/AN/A (N/A)20,000 .. 50,0000%00:00 (00:00)Playtra GamesPlaytra Games
106 911 Emergency Manager Nov 20, 2020 N/AN/A (N/A)20,000 .. 50,0000%00:00 (00:00)GoodZeit UGGoodZeit UG
107 Aegis Online Oct 30, 2020 FreeN/A (N/A)0 .. 20,0000%00:00 (00:00)Kale the QuickEaster Egg Productions
108 The Last Spell: Prologue Oct 29, 2020 N/AN/A (N/A)100,000 .. 200,0000%00:00 (00:00)Ishtar GamesThe Arcade Crew, Gamera Game (China)
109 Gladiator Guild Manager: Prologue Aug 27, 2020 FreeN/A (N/A)200,000 .. 500,0000%00:00 (00:00)Entertainment ForgeGrabTheGames, Gamera Games
110 Dungeon & Derision Aug 6, 2020 FreeN/A (N/A)0 .. 20,0000%00:00 (00:00)Alexis AngelyAlexis Angely
111 8-Bit Attack Jul 15, 2020 FreeN/A (N/A)20,000 .. 50,0000%00:00 (00:00)Startale Games, Petersen GamesStartale Games
112 DF-41 Simulator Jul 7, 2020 FreeN/A (N/A)0 .. 20,0000%00:00 (00:00)Bo ChenBo Chen
113 The falling tower Jun 23, 2020 FreeN/A (N/A)0 .. 20,0000%00:00 (00:00)CarotaaDream Night Studio
114 Hopebringers May 25, 2020 FreeN/A (N/A)0 .. 20,0000%00:00 (00:00)Critical Miss GamesCritical Miss Games
115 Zoria: Age of Shattering Prologue Apr 30, 2020 FreeN/A (N/A)50,000 .. 100,0000%00:00 (00:00)Tiny Trinket GamesTiny Trinket Games
116 INFILTRIA Mar 3, 2020 N/AN/A (N/A)0 .. 20,0000%00:00 (00:00)sectuZNETsectuZ.NET
117 Battlecraft - Tactics Online Feb 10, 2020 N/AN/A (N/A)0 .. 20,0000%00:00 (00:00)Sigil EntertainmentSigil Entertainment
118 ReversiQuest2 Jan 6, 2020 N/AN/A (N/A)0 .. 20,0000%00:00 (00:00)YokogosystemsYokogosystems
119 Mix-Sign: Girl with 3 Signs Jan 6, 2020 FreeN/A (N/A)0 .. 20,0000%00:00 (00:00)KellenKyoKellenKyo
120 Game of Thrones Winter is Coming Nov 14, 2019 FreeN/A (N/A)200,000 .. 500,0000%00:00 (00:00)YOUZU (SINGAPORE) PTE. LTD.YOUZU (SINGAPORE) PTE. LTD.
121 Dawn of the Dragons: Ascension Nov 1, 2019 FreeN/A (N/A)20,000 .. 50,0000%00:00 (00:00)5th Planet Games Development ApS5th Planet Games Development ApS
122 Braveland Heroes Sep 16, 2019 FreeN/A (N/A)50,000 .. 100,0000%00:00 (00:00)Tortuga TeamTortuga Team
123 《鬼畜战记:金坷垃传说》 Jul 26, 2019 FreeN/A (N/A)50,000 .. 100,0000%00:00 (00:00)小闲小闲
124 Gythol Granditti: The Crypt of Darkness Jul 19, 2019 FreeN/A (N/A)20,000 .. 50,0000%00:00 (00:00)GZ StormGZ Storm
125 Conqueror's Blade May 30, 2019 FreeN/A (N/A)2,000,000 .. 5,000,0000.69%03:31 (01:10)Booming TechMY.GAMES
126 Goblin Squad - Total Division May 10, 2019 N/AN/A (N/A)0 .. 20,0000%00:00 (00:00)Event Horizon Studios34BigThings srl
127 Margonem Feb 20, 2019 FreeN/A (N/A)0 .. 20,0000%00:00 (00:00)GarmoryGarmory
128 Age of Fear: The Free World Jan 18, 2019 FreeN/A (N/A)100,000 .. 200,0000%00:00 (00:00)Leslaw SliwkoAge of Fear
129 Chaordic Dec 17, 2018 FreeN/A (N/A)0 .. 20,0000%00:00 (00:00)Artepi CorporationArtepi Corporation
130 Find & Destroy: Tank Strategy Jun 12, 2018 FreeN/A (N/A)20,000 .. 50,0000%00:00 (00:00)mPower Games StudiomPower Games Studio
131 Tactical Monsters Rumble Arena Jan 31, 2018 FreeN/A (N/A)500,000 .. 1,000,0000%00:00 (00:00)Camex GamesCamex Games
132 Clarent Saga: Tactics Sep 25, 2017 FreeN/A (N/A)0 .. 20,0000%00:00 (00:00)David NguyenDavid Nguyen
133 Warbands: Bushido Sep 15, 2017 FreeN/A (N/A)100,000 .. 200,0000%00:00 (00:00)Red Unit StudiosRed Unit Studios
134 Heroes Tactics May 24, 2017 FreeN/A (N/A)100,000 .. 200,0000%00:00 (00:00)Camex GamesCamex Games
135 Heroes Must Die Jul 15, 2016 FreeN/A (N/A)0 .. 20,0000%00:00 (00:00)Heroic GamesHeroic Games
136 Forge of Gods (RPG) May 6, 2016 N/AN/A (N/A)500,000 .. 1,000,0000%00:00 (00:00)Panoramik IncPanoramik Inc
137 Labyrinth Mar 7, 2016 N/AN/A (N/A)50,000 .. 100,0000%00:00 (00:00)Free Range GamesFree Range Games
138 NAVYFIELD Mar 18, 2000 N/AN/A (N/A)200,000 .. 500,0000%00:00 (00:00)SDEnterNETNaiadgames
139 Disgaea 6 Complete Jun 28, 2022 $69.99N/A (N/A)0 .. 20,0000%00:00 (00:00)Nippon Ichi Software, Inc.NIS America, Inc.
140 Cube Decider Jun 23, 2022 $3.99N/A (N/A)0 .. 20,0000%00:00 (00:00)DillyFrameDillyFrame
141 Lord of Darkness: Prologue Jun 21, 2022 $0.99N/A (N/A)0 .. 20,0000%00:00 (00:00)Pixel Lion StudiosPixel Lion Studios
142 Summoners Fate Jun 20, 2022 $17.99N/A (N/A)0 .. 20,0000%00:00 (00:00)D20Studios, LLCD20Studios, LLC, WhisperGames
143 Bargue Jun 17, 2022 $4.99N/A (N/A)0 .. 20,0000%00:00 (00:00)Evenmore GamesEvenmore Games
144 Super Stupid Game Jun 17, 2022 $3.99N/A (N/A)0 .. 20,0000%00:00 (00:00)JRPG.NovelsJRPG.Novels
145 Code 3: Police Response Jun 15, 2022 $14.99N/A (N/A)0 .. 20,0000%00:00 (00:00)109 Below109 Below
146 The Hand of Merlin Jun 14, 2022 $14.99N/A (N/A)0 .. 20,000100%01:10 (01:10)Room-C Games, CroteamVersus Evil
147 Keita's Adventures on the African Savannah Jun 12, 2022 $0.99N/A (N/A)0 .. 20,0000%00:00 (00:00)African boy Keita studio, 非洲小男孩凯塔工作室African boy Keita studio, 非洲小男孩凯塔工作室
148 Cool Game Jun 10, 2022 $0.99N/A (N/A)0 .. 20,0000%00:00 (00:00)Cool Games StudioCool Games Studio
149 METAL MAX Xeno Reborn Jun 10, 2022 $39.99N/A (N/A)0 .. 20,0000%00:00 (00:00)Kadokawa GamesPQube
150 Symphony of War: The Nephilim Saga Jun 10, 2022 $19.99N/A (N/A)100,000 .. 200,000100%13:00 (12:59)Dancing Dragon GamesFreedom Games
151 EMPYRE: Dukes of the Far Frontier Jun 3, 2022 $19.99N/A (N/A)0 .. 20,0000%00:00 (00:00)Coin Operated GamesWork Shift Play Inc.
152 Tinyfolks Jun 1, 2022 $3.99N/A (N/A)20,000 .. 50,0000%00:00 (00:00)Pierre VandermaesenVANDERMAESEN GAMES
153 Grim Tranquility Jun 1, 2022 $14.99N/A (N/A)20,000 .. 50,0000%00:00 (00:00)Poorly Timed Games, LLCPoorly Timed Games, LLC
154 Dwerve May 31, 2022 $19.99N/A (N/A)0 .. 20,0000%00:00 (00:00)Half Human GamesHalf Human Games, Electronic Sheep Games
155 Swords and Sandals Immortals May 26, 2022 $17.99N/A (N/A)20,000 .. 50,0000%00:00 (00:00)Whiskeybarrel StudioseGames.com
156 Obsidian Prince May 24, 2022 $11.99N/A (N/A)20,000 .. 50,0000%00:00 (00:00)Unleash the GiraffeUnleash the Giraffe, Gameclaw Studio
157 虚幻宇宙:重启 May 23, 2022 $5.99N/A (N/A)20,000 .. 50,0000%00:00 (00:00)云瑞同志云瑞同志
158 Ninja Village May 22, 2022 $8.09N/A (N/A)0 .. 20,0000%00:00 (00:00)Kairosoft Co.,LtdKairosoft Co.,Ltd
159 Maroon Berets: 2030 May 19, 2022 $11.24N/A (N/A)0 .. 20,0000%00:00 (00:00)Crescent GamesCrescent Games
160 封妖录 May 18, 2022 $1.49N/A (N/A)0 .. 20,0000%00:00 (00:00)青灯独酌青灯独酌
161 GOC Royale May 18, 2022 $8.39N/A (N/A)0 .. 20,0000%00:00 (00:00)Game of CardsGame of Cards
162 Ralph's party RPG May 17, 2022 $1.24N/A (N/A)50,000 .. 100,0000%00:00 (00:00)Samuvt2Samuvt2
163 Aurelia: Stellar Arising May 16, 2022 $2.24N/A (N/A)0 .. 20,0000%00:00 (00:00)A Stormy View Interactive LLCA Stormy View Interactive LLC
164 风墓战记 May 15, 2022 $0.49N/A (N/A)20,000 .. 50,0000%00:00 (00:00)DogShitStudioDogShitStudio
165 StressTest May 14, 2022 $4.99N/A (N/A)20,000 .. 50,0000%00:00 (00:00)FareedBhagwansingh, FlgamingFareed Bhagwansingh
166 Scholar May 13, 2022 $2.79N/A (N/A)0 .. 20,0000%00:00 (00:00)cosmic_dustcosmic_dust
167 Songs of Conquest May 10, 2022 $22.49N/A (N/A)100,000 .. 200,00014.29%00:04 (00:01)LavapotionCoffee Stain Publishing
168 Yaengard May 5, 2022 $19.99N/A (N/A)0 .. 20,0000%00:00 (00:00)Planeshift InteractivePlaneshift Interactive
169 Age of Grit May 3, 2022 $8.99N/A (N/A)0 .. 20,0000%00:00 (00:00)IQ SoupIQ Soup
170 DUST - A Post Apocalyptic RPG May 1, 2022 $4.99N/A (N/A)20,000 .. 50,0000%00:00 (00:00)SEGEDI INC.SEGEDI INC.
171 Dungeon Reels Tactics May 1, 2022 $8.99N/A (N/A)0 .. 20,0000%00:00 (00:00)Grandma's Basement GamesGrandma's Basement Games
172 流放之域 May 1, 2022 $1.99N/A (N/A)0 .. 20,0000%00:00 (00:00)利贝尔村夫利贝尔村夫
173 Burning Faith Apr 29, 2022 $10.49N/A (N/A)0 .. 20,0000%00:00 (00:00)War Cry StudiosAldorlea Games
174 Dungeon Rummage - Tiqee's Escape Apr 28, 2022 $1.49N/A (N/A)0 .. 20,0000%00:00 (00:00)Simple GamingSimple Gaming
175 Kaiju Wars Apr 28, 2022 $16.99N/A (N/A)20,000 .. 50,0000%00:00 (00:00)Foolish Mortals Games, Michael LongFoolish Mortals Games
176 King Arthur: Knight's Tale Apr 26, 2022 $29.24N/A (N/A)100,000 .. 200,00075%03:46 (05:34)NeocoreGamesNeocoreGames
177 鬥犬 Dog Fighting Apr 24, 2022 $3.99N/A (N/A)0 .. 20,0000%00:00 (00:00)LivelyO2LivelyO2
178 The Eternal Battlefields Apr 23, 2022 $2.51N/A (N/A)0 .. 20,0000%00:00 (00:00)YAK GAMESYAK GAMES
179 Unconventional Warfare Apr 21, 2022 $9.99N/A (N/A)0 .. 20,0000%00:00 (00:00)Nightlife StrangersNightlife Strangers
180 The Iron Oath Apr 19, 2022 $19.99N/A (N/A)50,000 .. 100,0000%00:00 (00:00)Curious Panda GamesHumble Games
181 Daldos Apr 18, 2022 $6.79N/A (N/A)0 .. 20,0000%00:00 (00:00)Vanaheim TeamVanaheim Team
182 Enemy Engaged 2: Desert Operations Apr 18, 2022 $2.99N/A (N/A)20,000 .. 50,0000%00:00 (00:00)G2 GamesStrategy First
183 S E V E R A N C E Apr 16, 2022 $1.99N/A (N/A)200,000 .. 500,0000%00:00 (00:00)Polybit_GamePolybit_Game
184 Paths & Danger Apr 15, 2022 $8.99N/A (N/A)0 .. 20,0000%00:00 (00:00)GoldenGod GamesGoldenGod Games
185 Zoo Tales Apr 14, 2022 $5.59N/A (N/A)0 .. 20,0000%00:00 (00:00)Soein Studio, ChiEn, 十六椰子Soein Studio, ChiEn
186 Woods of Death 2 Apr 8, 2022 $4.54N/A (N/A)0 .. 20,0000%00:00 (00:00)Michael J WoodMichael J Wood
187 Circle Empires Tactics Apr 7, 2022 $11.24N/A (N/A)20,000 .. 50,0000%00:00 (00:00)LuminousIceberg Interactive
188 Outbreak: Contagious Memories Apr 6, 2022 $17.99N/A (N/A)0 .. 20,0000%00:00 (00:00)Dead Drop Studios LLCDead Drop Studios LLC
189 Police Response VR : Disturbance Apr 6, 2022 $3.74N/A (N/A)0 .. 20,0000%00:00 (00:00)Caltain VR LtdCaltain VR Ltd
190 Grim Quest - Old School RPG Apr 1, 2022 $5.99N/A (N/A)0 .. 20,0000%00:00 (00:00)MonomythMonomyth
191 战棋三国英雄 Apr 1, 2022 $14.44N/A (N/A)0 .. 20,0000%00:00 (00:00)Dreamers StudioDreamers Studio
192 The Book of the Game (Adventures in Leman) Apr 1, 2022 $24.99N/A (N/A)0 .. 20,0000%00:00 (00:00)MDH SoftwareMDH Software
193 Agent Roswell : Tactics Apr 1, 2022 $3.59N/A (N/A)0 .. 20,0000%00:00 (00:00)Blue Horizon Studios LtdBlue Horizon Studios Ltd
194 Sweet Surge Mar 30, 2022 $3.99N/A (N/A)0 .. 20,0000%00:00 (00:00)Chocolate Ship GamesChocolate Ship Games
195 Tavolga-12 Mar 29, 2022 $14.99N/A (N/A)0 .. 20,0000%00:00 (00:00)Two DogsTwo Dogs
196 Knights of the Chalice 2 Mar 25, 2022 $44.99N/A (N/A)0 .. 20,0000%00:00 (00:00)Heroic Fantasy Games Dot ComHeroic Fantasy Games Dot Com
197 执剑九霄 Mar 24, 2022 $3.5N/A (N/A)100,000 .. 200,0000%00:00 (00:00)K.Kaiser's Game StudioK.Kaiser's Game Studio
198 PARTY RUSH!! Mar 23, 2022 $7.99N/A (N/A)200,000 .. 500,0000%00:00 (00:00)SECHANCREST
199 Hate Free Heroes Tactics: Strategy Building MMO Mar 22, 2022 $4.99N/A (N/A)20,000 .. 50,0000%00:00 (00:00)Hate Free HeroesHate Free Heroes
200 I Am Gangster Mar 18, 2022 $3.99N/A (N/A)0 .. 20,0000%00:00 (00:00)ThisisdemoThisisdemo
201 Royal Frontier Mar 18, 2022 $4.89N/A (N/A)0 .. 20,0000%00:00 (00:00)WoblywareRatalaika Games S.L.
202 Black Geyser: Couriers of Darkness Mar 17, 2022 $19.49N/A (N/A)50,000 .. 100,0000%00:00 (00:00)GrapeOcean TechnologiesV Publishing, GrapeOcean Technologies
203 RoguePG Mar 15, 2022 $0.49N/A (N/A)0 .. 20,0000%00:00 (00:00)Tayler TolmanTMT Studios
204 Escape from Cronos X Mar 15, 2022 $7.99N/A (N/A)0 .. 20,0000%00:00 (00:00)Request LogicRequest Logic AS (Ltd)
205 Telepath Tactics Liberated Mar 14, 2022 $22.49N/A (N/A)0 .. 20,0000%00:00 (00:00)Sinister DesignSinister Design
206 Elteria Hunter Mar 10, 2022 $4.49N/A (N/A)20,000 .. 50,0000%00:00 (00:00)CH-Gaming StudioCH-Gaming Studio
207 Hidden Post-Apocalyptic Top-Down 3D Mar 9, 2022 $0.99N/A (N/A)0 .. 20,0000%00:00 (00:00)Top-Down GamesHede
208 Quickflash - A Fabula Story Mar 9, 2022 $4.19N/A (N/A)0 .. 20,0000%00:00 (00:00)4E Game Studio4E Publisher
209 Hidden Build Top-Down 3D Mar 8, 2022 $0.99N/A (N/A)20,000 .. 50,0000%00:00 (00:00)Top-Down GamesHede
210 Barry of Wrath Mar 4, 2022 $9.74N/A (N/A)0 .. 20,0000%00:00 (00:00)Wolfs Moon StudiosWolfs Moon Studios
211 Legend of Ixtona Mar 3, 2022 $11.24N/A (N/A)0 .. 20,0000%00:00 (00:00)WorldWideSoftwareKEMCO
212 Dark Dragonkin Mar 1, 2022 $8.99N/A (N/A)0 .. 20,0000%00:00 (00:00)TwintertainmentTwintertainment
213 Initium Legenda Feb 25, 2022 $4.99N/A (N/A)0 .. 20,0000%00:00 (00:00)LEGENDA Inc.LEGENDA Inc.
214 Plentypede Feb 22, 2022 $11.99N/A (N/A)0 .. 20,0000%00:00 (00:00)Favour Toys Studios, CRX EntertainmentFavour Toys Studios
215 Moonbase Down Feb 22, 2022 $2.99N/A (N/A)0 .. 20,0000%00:00 (00:00)Advent RPGAdvent RPG
216 El Mucho Feb 20, 2022 $9.99N/A (N/A)0 .. 20,0000%00:00 (00:00)Andreas DahmLobo Corp.
217 PARACHUTER Feb 17, 2022 $0.99N/A (N/A)20,000 .. 50,0000%00:00 (00:00)XWZXWZ
218 Cascade Tactics Feb 17, 2022 $7.99N/A (N/A)20,000 .. 50,0000%00:00 (00:00)Mythic Machine Software LLCMythic Machine Software LLC
219 Spelldrifter Feb 15, 2022 $4.99N/A (N/A)20,000 .. 50,0000%00:00 (00:00)Free Range GamesFree Range Games
220 Faye: A Tale of Shadow Feb 14, 2022 $9.99N/A (N/A)20,000 .. 50,0000%00:00 (00:00)Night Stroll StudioNight Stroll Studio
221 梅斯特姆 Feb 12, 2022 $11.99N/A (N/A)20,000 .. 50,0000%00:00 (00:00)Pyraminx SoftPyraminx Soft
222 幻梦之城(C T O D) Feb 10, 2022 $2.99N/A (N/A)0 .. 20,0000%00:00 (00:00)zhi wen zhangzhi wen zhang
223 Kings0 Feb 10, 2022 $0.89N/A (N/A)20,000 .. 50,0000%00:00 (00:00)RAD TeamRAD Team
224 Monsters and Weapons Feb 9, 2022 $3.74N/A (N/A)0 .. 20,0000%00:00 (00:00)Bocary StudiosBocary Studios
225 Sugar Story Feb 9, 2022 $1.79N/A (N/A)100,000 .. 200,0000%00:00 (00:00)Source Byte Sp. z o.o., Nikodem ŚwiderSource Byte Sp. z o.o.
226 西游戰棋(West Journey War) Feb 8, 2022 $0.99N/A (N/A)0 .. 20,0000%00:00 (00:00)ZMEI StudioZMEI Studio
227 Spirit of Adventure Feb 12, 1991 $5.39N/A (N/A)20,000 .. 50,0000%00:00 (00:00)Attic Entertainment SoftwareUnique Games
228 King of Heroes Feb 3, 2022 $9.99N/A (N/A)0 .. 20,0000%00:00 (00:00)Paper Fan GamesPaper Fan Games
229 Bluewater: Private Military Operations VR Feb 1, 2022 $4.49N/A (N/A)0 .. 20,0000%00:00 (00:00)VR RETRO REMASTERVR RETRO REMASTER
230 Nonstop Feb 1, 2022 $0.99N/A (N/A)0 .. 20,0000%00:00 (00:00)SensySensy
231 Rogue Dungeon Jan 28, 2022 $8.99N/A (N/A)0 .. 20,0000%00:00 (00:00)Cerberus Gate GamesCerberus Gate Games
232 Downfall of Krynto Jan 26, 2022 $5.99N/A (N/A)0 .. 20,0000%00:00 (00:00)Sloppy Joe StudiosSloppy Joe Studios
233 Reverie Knights Tactics Jan 25, 2022 $18.74N/A (N/A)20,000 .. 50,0000%00:00 (00:00)40 Giants EntertainmentFulqrum Publishing
234 Mystery of Fortune 2 Refine Jan 24, 2022 N/AN/A (N/A)20,000 .. 50,0000%00:00 (00:00)Dotomchi Games Inc.Dotomchi Games Inc.
235 Samurai Tactics Jan 24, 2022 $0.79N/A (N/A)20,000 .. 50,0000%00:00 (00:00)AzumaAzuma Soft
236 The Monster Breeder Jan 19, 2022 $17.99N/A (N/A)0 .. 20,0000%00:00 (00:00)Fantasy CreationsFantasy Creations
237 瀚辰书院 Jan 19, 2022 $2.69N/A (N/A)0 .. 20,0000%00:00 (00:00)炀艺科技炀艺科技
238 Lost Scavenger Jan 18, 2022 $11.24N/A (N/A)0 .. 20,0000%00:00 (00:00)RockbeeRockbee
239 Warspace Jan 17, 2022 $3.99N/A (N/A)100,000 .. 200,0000%00:00 (00:00)Real GamerReal Gamer
240 Stand Of Arms Jan 16, 2022 $6.99N/A (N/A)0 .. 20,0000%00:00 (00:00)XF GameXF Game
241 A Noite Sem Fim Jan 15, 2022 $4.79N/A (N/A)50,000 .. 100,0000%00:00 (00:00)A GuildaA Guilda
242 Underground escape 地底逃生 Jan 14, 2022 $0.99N/A (N/A)0 .. 20,0000%00:00 (00:00)dongxujuandongxujuan
243 Idle Calibur Jan 14, 2022 $4.71N/A (N/A)50,000 .. 100,00016.67%03:57 (01:19)绝汪DreamStep, 绝汪
244 Mary Skelter 2 Jan 13, 2022 $24.49N/A (N/A)0 .. 20,0000%00:00 (00:00)Idea FactoryGhostlight LTD.
245 Carrier Commander Jan 10, 2022 $9.99N/A (N/A)0 .. 20,0000%00:00 (00:00)ssss
246 Monads II Dec 31, 2020 $14.99N/A (N/A)0 .. 20,0000%00:00 (00:00)Team MonadTeam Monad
247 Rising of the Moon - Part 1 Jan 7, 2022 $2.49N/A (N/A)20,000 .. 50,0000%00:00 (00:00)ValyutechnikValyutechnik
248 VenusBlood HOLLOW International Jan 6, 2022 $38.24N/A (N/A)20,000 .. 50,0000%00:00 (00:00)Ninetail, DualtailJAST USA, Kagura Games (Chinese Version)
249 封神榜2022 Jan 6, 2022 $9.99N/A (N/A)20,000 .. 50,0000%00:00 (00:00)FC MakerFC Maker
250 F-Rank hero story Jan 4, 2022 $6.59N/A (N/A)0 .. 20,0000%00:00 (00:00)Funny game studioFunny game studio
251 Galactic Dreams Jan 4, 2022 $0.49N/A (N/A)0 .. 20,0000%00:00 (00:00)Evolution VaultStrategy First
252 超越海盗 Dec 31, 2021 $1.99N/A (N/A)0 .. 20,0000%00:00 (00:00)四元方程四元方程
253 RED OPS ARCADE Dec 29, 2021 $2.99N/A (N/A)20,000 .. 50,0000%00:00 (00:00)RAIS Z.RAIDOKS GAMES
254 Precursors: Armored Angels Dec 27, 2021 $5.39N/A (N/A)20,000 .. 50,0000%00:00 (00:00)Artificial Worlds Ltd.Artificial Worlds Ltd.
255 Watermelon Wars Dec 27, 2021 $1.99N/A (N/A)0 .. 20,0000%00:00 (00:00)SleepFly 睡神飞SleepFly 睡神飞
256 Item synthesis and dungeon exploration Dec 21, 2021 $4.89N/A (N/A)0 .. 20,0000%00:00 (00:00)OikariBunchoOikariBuncho
257 Trials of Proelium Dec 16, 2021 $2.39N/A (N/A)20,000 .. 50,0000%00:00 (00:00)Retroactive FortRetroactive Fort
258 Toy War - Cannon Dec 15, 2021 $0.99N/A (N/A)0 .. 20,0000%00:00 (00:00)HedeHede
259 The Thorn of Warldia Dec 10, 2021 $0.99N/A (N/A)0 .. 20,0000%00:00 (00:00)WendtOnGamesWendtOnGames
260 World of Bärn Dec 9, 2021 $0.99N/A (N/A)0 .. 20,0000%00:00 (00:00)Ready To PlayReady To Play
261 Wolfstride Dec 7, 2021 $8.99N/A (N/A)20,000 .. 50,0000%00:00 (00:00)OTA IMON StudiosRaw Fury
262 Defenders Glory Dec 6, 2021 $4.99N/A (N/A)0 .. 20,0000%00:00 (00:00)Derek Eduardo GonçalvesLoris Studio
263 Dragon Hunters Dec 3, 2021 $19.99N/A (N/A)100,000 .. 200,0000%00:00 (00:00)Sigonheart Games LLCSigonheart Games LLC
264 The Clockworker Dec 3, 2021 $1.99N/A (N/A)20,000 .. 50,0000%00:00 (00:00)Ixeria, MadBeeThe Broken Clock
265 Mechajammer Dec 2, 2021 $17.49N/A (N/A)50,000 .. 100,0000%00:00 (00:00)Whalenought StudiosModern Wolf
266 Dice vs Dice Dec 2, 2021 $2.49N/A (N/A)0 .. 20,0000%00:00 (00:00)CodingApe GamesVulpis Yazilim
267 Wartales Dec 1, 2021 $27.99N/A (N/A)200,000 .. 500,0000%00:00 (00:00)Shiro GamesShiro Unlimited
268 Raptor Territory Nov 30, 2021 $0.99N/A (N/A)0 .. 20,0000%00:00 (00:00)RedClaw ProductionsRedClaw Productions
269 Gears of Phantasm: Destiny Tailored(Act I) Nov 30, 2021 FreeN/A (N/A)20,000 .. 50,0000%00:00 (00:00)Ghost in the CogwheelsPhantom Production Set
270 惊险极速 Nov 29, 2021 $6.99N/A (N/A)0 .. 20,0000%00:00 (00:00)个人个人
271 Heroes of Xanfurth Nov 25, 2021 FreeN/A (N/A)0 .. 20,0000%00:00 (00:00)Shatter Wing StudiosShatter Wing Studios
272 The Missing Link Nov 22, 2021 $5.24N/A (N/A)0 .. 20,0000%00:00 (00:00)Caico Morais de BritoCaico Morais de Brito
273 Sidequest Nov 22, 2021 $14.99N/A (N/A)0 .. 20,0000%00:00 (00:00)Angry-fromunAngry-fromun
274 ball heroes Nov 16, 2021 $9.99N/A (N/A)0 .. 20,0000%00:00 (00:00)Chengdu Haowanyou Technologies Co., LtdChengdu Haowanyou Technologies Co., Ltd
275 问道仙途2 Nov 12, 2021 $0.59N/A (N/A)0 .. 20,0000%00:00 (00:00)青灯独酌青灯独酌
276 SAD RPG: A Social Anxiety Role Playing Game Nov 11, 2021 $7.19N/A (N/A)0 .. 20,0000%00:00 (00:00)Evil Indie GamesEvil Indie Games
277 Wulin Chess Nov 9, 2021 $8.39N/A (N/A)20,000 .. 50,0000%00:00 (00:00)LameCat StudioEast2West Games
278 Star Shift Origins Nov 8, 2021 $3.83N/A (N/A)200,000 .. 500,0000%00:00 (00:00)Psychronic Game StudiosG-DEVS.com, Psychronic Games
279 Lame Defenders Nov 8, 2021 $1.99N/A (N/A)0 .. 20,0000%00:00 (00:00)LameGamesLameGames
280 Valley Knights Nov 5, 2021 $0.99N/A (N/A)20,000 .. 50,0000%00:00 (00:00)Long Road GamesLong Road Games
281 Unveiled Nov 5, 2021 $1.99N/A (N/A)20,000 .. 50,0000%00:00 (00:00)AnotherIndieGameDevAnotherIndieGameDev
282 Void Eclipse Nov 3, 2021 $11.99N/A (N/A)0 .. 20,0000%00:00 (00:00)Tau Ceti StudiosTau Ceti Studios
283 The Lost King of Avallon Nov 2, 2021 $10.49N/A (N/A)0 .. 20,0000%00:00 (00:00)Freeline Games GmbHFreeline Games GmbH
284 Broken Betrayal Nov 2021 $10.99N/A (N/A)0 .. 20,0000%00:00 (00:00)AlphaOne GamesAlphaOne Games
285 Super Robot Wars 30 Oct 27, 2021 $38.99N/A (N/A)200,000 .. 500,0000%00:00 (00:00)B.B.STUDIO CO.,LTD.BANDAI NAMCO Entertainment
286 Defend the Rook Oct 26, 2021 $12.59N/A (N/A)50,000 .. 100,0000%00:00 (00:00)One Up PlusGoblinz Publishing, Maple Whispering Limited
287 Feign Oct 23, 2021 $2.99N/A (N/A)100,000 .. 200,00011.11%02:16 (00:45)tenekekafalarstudiostenekekafalarstudios
288 Human Madness Oct 21, 2021 $7.99N/A (N/A)0 .. 20,0000%00:00 (00:00)The OneThe One
289 Disciples: Liberation Oct 21, 2021 $8.99N/A (N/A)100,000 .. 200,0000%00:00 (00:00)Frima StudioKalypso Media
290 Spire of Sorcery Oct 21, 2021 $16N/A (N/A)50,000 .. 100,0000%00:00 (00:00)Charlie Oscar Lima Tango Interactive EntertainmentCharlie Oscar Lima Tango Interactive Entertainment
291 制服少女 Oct 21, 2021 $0.99N/A (N/A)0 .. 20,0000%00:00 (00:00)小闲小闲
292 Cards of the Dead Oct 21, 2021 $3.99N/A (N/A)0 .. 20,0000%00:00 (00:00)Boomfire GamesJanduSoft
293 Legacy of Sin the father sacrifice Oct 20, 2021 $3.99N/A (N/A)0 .. 20,0000%00:00 (00:00)Absolute Power Game StudioAbsolute Power Game Studio
294 Fear Surrounds Oct 19, 2021 $3.99N/A (N/A)200,000 .. 500,0000%00:00 (00:00)SaltyEgg StudioYooreka Studio
295 Delphyq Oct 19, 2021 $14.99N/A (N/A)100,000 .. 200,0000%00:00 (00:00)Dusk Wave Arts LLCDusk Wave Arts LLC
296 迅风的米斯特汀 Windy Mystletainn Oct 19, 2021 $0.49N/A (N/A)50,000 .. 100,0000%00:00 (00:00)索尼克冷笑黑妖
297 Stolen Realm Oct 14, 2021 $15.99N/A (N/A)100,000 .. 200,0000%00:00 (00:00)Burst2Flame EntertainmentBurst2Flame Entertainment
298 Content Creator's Internet Adventure Oct 14, 2021 $4.99N/A (N/A)20,000 .. 50,0000%00:00 (00:00)James R TrimbleSaladite Games
299 Gladiator Guild Manager Oct 13, 2021 $8.99N/A (N/A)100,000 .. 200,0000%00:00 (00:00)Entertainment ForgeGrabTheGames, Gamera Games
300 Dungeon Deathball Oct 13, 2021 $8.39N/A (N/A)0 .. 20,0000%00:00 (00:00)Matt GlanvilleMatt Glanville
301 Unionatic Oct 10, 2021 $4.99N/A (N/A)0 .. 20,0000%00:00 (00:00)BananaJellyBean StudiosBananaJellyBean Studios
302 Academy Quest | アカデミークエスト Oct 8, 2021 $6.99N/A (N/A)0 .. 20,0000%00:00 (00:00)つれづれつれづれ
303 Guile & Glory: Firstborn Oct 7, 2021 $9.99N/A (N/A)0 .. 20,0000%00:00 (00:00)Elston StudiosElston Studios
304 Eclipse Oct 7, 2021 $9.93N/A (N/A)50,000 .. 100,0000%00:00 (00:00)MadRockMadRock
305 Rescue Troopers Oct 5, 2021 $4.99N/A (N/A)0 .. 20,0000%00:00 (00:00)ssss
306 周松传 Oct 4, 2021 $2.99N/A (N/A)0 .. 20,0000%00:00 (00:00)周松传工作室周松传工作室
307 Angels vs Demons Oct 3, 2021 $9.99N/A (N/A)0 .. 20,0000%00:00 (00:00)wow wow Gameswow wow Games
308 Touhou Monster TD ~ 幻想乡妖怪塔防 Oct 1, 2021 $7.59N/A (N/A)50,000 .. 100,0000%00:00 (00:00)MyACG StudioMyACG Studio
309 The Song of the Fae Oct 1, 2021 $9.99N/A (N/A)0 .. 20,0000%00:00 (00:00)TwoPM StudiosTwoPM Studios
310 西游记2021 Sep 30, 2021 $9.99N/A (N/A)50,000 .. 100,0000%00:00 (00:00)FC MakerFC Maker
311 Tomes and Quests: a Word RPG Sep 30, 2021 $9.99N/A (N/A)0 .. 20,0000%00:00 (00:00)Trailblazer GamesTrailblazer Games
312 The Handler of Dragons Sep 27, 2021 $3.59N/A (N/A)0 .. 20,0000%00:00 (00:00)Hi-Quality Jerzy CalinskiGolden Eggs Studio
313 Elementowers Sep 23, 2021 $6.49N/A (N/A)0 .. 20,0000%00:00 (00:00)Lemon SqueezyLemon Squeezy
314 Guild of Ascension Sep 21, 2021 $8.99N/A (N/A)0 .. 20,0000%00:00 (00:00)WhileOne ProductionsPID Games
315 Oath of Miko Sep 20, 2021 $3.19N/A (N/A)0 .. 20,0000%00:00 (00:00)PotSPotS
316 Kingdom of Heroes Sep 20, 2021 $7.99N/A (N/A)0 .. 20,0000%00:00 (00:00)MoonlightGamesMoonlightGames
317 Everpixel Tactics Sep 17, 2021 $4.99N/A (N/A)20,000 .. 50,0000%00:00 (00:00)Doom Dino GamesDoom Dino Games
318 Grim wanderings 2 Sep 15, 2021 $2.99N/A (N/A)100,000 .. 200,0000%00:00 (00:00)Ellinia gamesEllinia games
319 Table of Tales: The Crooked Crown Sep 14, 2021 $14.99N/A (N/A)0 .. 20,0000%00:00 (00:00)Tin Man Games, Zero One StudioTin Man Games
320 ChibiClubTD Sep 14, 2021 $1.99N/A (N/A)0 .. 20,0000%00:00 (00:00)MHCMHC
321 Avalom: Ancestral Heroes Sep 13, 2021 $8.99N/A (N/A)0 .. 20,0000%00:00 (00:00)WAGNER ROCHAINDIE
322 Nilia Sep 12, 2021 $3.49N/A (N/A)20,000 .. 50,0000%00:00 (00:00)4 Hats4 Hats
323 Terrain of Magical Expertise Sep 9, 2021 $16.74N/A (N/A)0 .. 20,0000%00:00 (00:00)NEO-C Productions L.L.CFulqrum Publishing
324 Hammerheart Sep 6, 2021 $9.34N/A (N/A)0 .. 20,0000%00:00 (00:00)Bennett FarmerBennett Farmer
325 Adventurers Guild Sep 6, 2021 $3.31N/A (N/A)20,000 .. 50,0000%00:00 (00:00)Game DeliveryGame Delivery
326 Shawarma or Shaverma Sep 4, 2021 $0.99N/A (N/A)50,000 .. 100,0000%00:00 (00:00)Stas Paty9mkinPiece Of Voxel
327 Heads Will Roll Sep 4, 2021 $3.24N/A (N/A)0 .. 20,0000%00:00 (00:00)1917 Studios1917 Studios
328 Aurora - Hidden Colors Sep 2, 2021 $0.49N/A (N/A)100,000 .. 200,0000%00:00 (00:00)Aurora - Mídia & GamesAurora - Mídia & Games
329 Office Strike War - Multiplayer Battle Royale Sep 2, 2021 $0.5N/A (N/A)0 .. 20,0000%00:00 (00:00)Bad Kids GamesAtomic Fabrik, Cristian Manolachi
330 Soul Nomad & the World Eaters Aug 31, 2021 $15.99N/A (N/A)0 .. 20,0000%00:00 (00:00)Nippon Ichi Software, Inc., CodeglueNIS America, Inc.
331 The Curse of Feldar Vale Aug 30, 2021 $4.49N/A (N/A)0 .. 20,0000%00:00 (00:00)Ian C PookPaphian Games
332 Three Fairies' Hoppin' Flappin' Great Journey! Aug 27, 2021 $10.79N/A (N/A)0 .. 20,0000%00:00 (00:00)yomogi_softPhoenixx Inc.
333 Elmarion: the Lost Temple Aug 26, 2021 $4.99N/A (N/A)0 .. 20,0000%00:00 (00:00)Fleon GamesFleon Games
334 Captures Aug 26, 2021 $0.49N/A (N/A)0 .. 20,0000%00:00 (00:00)cosmic_dustcosmic_dust
335 Der Geisterjäger / The Ghost Hunter Aug 26, 2021 $12.05N/A (N/A)0 .. 20,0000%00:00 (00:00)Graverobber FoundationGraverobber Foundation
336 Googass Aug 25, 2021 $1.99N/A (N/A)0 .. 20,0000%00:00 (00:00)Brewsterland StudiosBrewsterland Studios
337 Ultimate ADOM - Caverns of Chaos Aug 25, 2021 $9.99N/A (N/A)20,000 .. 50,0000%00:00 (00:00)Thomas Biskup, Jochen Terstiege, Krzysztof Dycha, Lucas Dieguez, Bastian von Gostomski, Carola Sochiera, Björn LoesingAssemble Entertainment, WhisperGames
338 King's Bounty II Aug 24, 2021 $24.99N/A (N/A)100,000 .. 200,0000%00:00 (00:00)1C Entertainment1C Entertainment, Prime Matter, 方块游戏 (China)
339 LABYRINTH OF TOUHOU - GENSOKYO AND THE HEAVEN-PIERCING TREE Aug 23, 2021 $23.99N/A (N/A)20,000 .. 50,0000%00:00 (00:00)Nise-Eikoku Studio, CUBETYPECUBETYPE
340 UFO vs Bikini Aug 23, 2021 $1.79N/A (N/A)0 .. 20,0000%00:00 (00:00)Xenon LuWELOVEBOT CO., LTD.
341 Station Commander Aug 23, 2021 $1.99N/A (N/A)50,000 .. 100,0000%00:00 (00:00)Ben Marks Game StudiosBen Marks Game Studios
342 Heroes of Yore Aug 23, 2021 $6.99N/A (N/A)0 .. 20,0000%00:00 (00:00)Vogel Vision LLCVogel Vision LLC
343 Project Martians Aug 22, 2021 $7.99N/A (N/A)0 .. 20,0000%00:00 (00:00)Stanislaw DevStanislaw Dev
344 Nayati River Aug 20, 2021 $9.49N/A (N/A)20,000 .. 50,0000%00:00 (00:00)Worlds To PlayWorlds To Play
345 Endorfire Tower Defense Aug 13, 2021 $9.99N/A (N/A)0 .. 20,0000%00:00 (00:00)The ZooThe Zoo
346 Bionite: Origins Aug 13, 2021 $11.99N/A (N/A)0 .. 20,0000%00:00 (00:00)Platoon StudiosPlatoon Studios
347 Dust to the End Aug 11, 2021 $7.19N/A (N/A)100,000 .. 200,0000%00:00 (00:00)Haojoy Game, Zjoy Game2P Games
348 The Last Hope: Zombie Defense TD Aug 10, 2021 $0.49N/A (N/A)0 .. 20,0000%00:00 (00:00)DUK GamesDUK Games
349 团长别生气 Aug 5, 2021 $7.99N/A (N/A)0 .. 20,0000%00:00 (00:00)掌烛文化 掌烛文化
350 Smithy Wars Jul 30, 2021 $2.67N/A (N/A)0 .. 20,0000%00:00 (00:00)Bigboot StudiosBigboot Studios
351 GATE Jul 30, 2021 $3.74N/A (N/A)0 .. 20,0000%00:00 (00:00)Banshee CatBanshee Cat
352 The Vagabond Emperor Jul 29, 2021 $15.99N/A (N/A)0 .. 20,0000%00:00 (00:00)WigglingEyebrowsWigglingEyebrows
353 RPG: Squad battle Jul 22, 2021 $0.49N/A (N/A)0 .. 20,0000%00:00 (00:00)Tero Lunkka, Valkeala SoftwareTero Lunkka
354 AirFighter Jul 20, 2021 $1.09N/A (N/A)0 .. 20,0000%00:00 (00:00)LTRG corp.khukhrovr
355 Renova Jul 20, 2021 $3.99N/A (N/A)0 .. 20,0000%00:00 (00:00)Teutonic GamesTeutonic Games
356 Tactical Vanguard Saga Jul 20, 2021 $4.99N/A (N/A)100,000 .. 200,0000%00:00 (00:00)Blacc Ski Weekend IndustriesBlacc Ski Weekend Industries
357 The Protagonist: EX-1 Jul 18, 2021 $2.79N/A (N/A)20,000 .. 50,0000%00:00 (00:00)3Mind Games3Mind Games
358 Pest Control Jul 15, 2021 $3.99N/A (N/A)0 .. 20,0000%00:00 (00:00)EON46Ritual Interactive
359 There May Be Ninety-Nine Of Us, But We Have To Win In Ninety-Nine Turns! Jul 14, 2021 $3.19N/A (N/A)0 .. 20,0000%00:00 (00:00)Cannibal InteractiveCannibal Interactive
360 S.O.T.A 2 Jul 14, 2021 $4.99N/A (N/A)20,000 .. 50,0000%00:00 (00:00)S.O.T.A GamesS.O.T.A Games
361 NEO: Commanders Jul 9, 2021 $1.49N/A (N/A)0 .. 20,0000%00:00 (00:00)SZEINERSZEINER
362 Castles & Catapults Jul 7, 2021 $1.59N/A (N/A)0 .. 20,0000%00:00 (00:00)Magic LanternAtari
363 明明如月 Jul 2, 2021 $5.99N/A (N/A)0 .. 20,0000%00:00 (00:00)希言游戏希言游戏
364 Kuro Tactics Jul 1, 2021 $2.99N/A (N/A)20,000 .. 50,0000%00:00 (00:00)KurowareLLCKurowareLLC
365 Merge & Blade Jun 29, 2021 $4.19N/A (N/A)20,000 .. 50,0000%00:00 (00:00)Magic CubeMagic Cube
366 Mecha Tactics Jun 28, 2021 $3.59N/A (N/A)0 .. 20,0000%00:00 (00:00)Nullio GamesNullio Games
367 Eiyu*Senki Gold – A New Conquest Jun 25, 2021 $20.99N/A (N/A)20,000 .. 50,0000%00:00 (00:00)TencoJAST USA, Kagura Games (Chinese Localization)
368 Live by the Sword: Tactics Jun 23, 2021 $19.99N/A (N/A)0 .. 20,0000%00:00 (00:00)Labrador StudiosGRAVITY GAME ARISE Co., Ltd.
369 Endless Love Jun 22, 2021 $24.99N/A (N/A)0 .. 20,0000%00:00 (00:00)玫瑰工作室玫瑰工作室
370 The Legends in Kylamar Jun 21, 2021 $5.99N/A (N/A)0 .. 20,0000%00:00 (00:00)Gamma Knight StudiosGamma Knight Studios
371 DREAM TIME Jun 18, 2021 $7.99N/A (N/A)0 .. 20,0000%00:00 (00:00)AI mainland Game studioAI mainland Game studio
372 Amneron's Legacy Jun 17, 2021 $7.64N/A (N/A)0 .. 20,0000%00:00 (00:00)Rythane (JRH)Rythane (JRH)
373 UFO2: Extraterrestrials Jun 15, 2021 $19.24N/A (N/A)0 .. 20,0000%00:00 (00:00)Chaos ConceptChaos Concept
374 The Girl Who Sees Jun 11, 2021 $4.94N/A (N/A)100,000 .. 200,0000%00:00 (00:00)InterIntellectus NFPInterIntellectus NFP
375 仙路志异 Jun 10, 2021 $5.99N/A (N/A)0 .. 20,0000%00:00 (00:00)Big Flag StudioBig Flag Studio
376 Warlike Jun 10, 2021 $3.99N/A (N/A)20,000 .. 50,0000%00:00 (00:00)Peter KnakPeter Knak
377 Rise Eterna Jun 9, 2021 $1.99N/A (N/A)0 .. 20,0000%00:00 (00:00)Makee, Forever Entertainment S. A.Forever Entertainment S. A.
378 Defense Tower Simulator Jun 5, 2021 $1.99N/A (N/A)0 .. 20,0000%00:00 (00:00)CoolCraftGames CoolCraftGames
379 The Handbook Jun 4, 2021 $2.39N/A (N/A)20,000 .. 50,0000%00:00 (00:00)Ivories StudiosIvories Studios
380 Sabre Team Jun 4, 2021 $4.54N/A (N/A)100,000 .. 200,0000%00:00 (00:00)Krisalis SoftwareZiggurat
381 The Last Spell Jun 3, 2021 $14.99N/A (N/A)200,000 .. 500,0000%00:00 (00:00)Ishtar GamesThe Arcade Crew, Gamera Games, Dangen Entertainment
382 Infiltration: Alone in Combat Jun 2, 2021 $1.99N/A (N/A)20,000 .. 50,0000%00:00 (00:00)Elvio LujánElvio Luján
383 リトルハーツ May 28, 2021 $4.99N/A (N/A)0 .. 20,0000%00:00 (00:00)ゆーぎりゆーぎり
384 Love n War: Warlord by Chance May 28, 2021 $2N/A (N/A)50,000 .. 100,0000%00:00 (00:00)Reborn EntertainmentReborn Entertainment
385 Album Corvus May 21, 2021 $12.99N/A (N/A)0 .. 20,0000%00:00 (00:00)Devil's Dozen GamesDevil's Dozen Games
386 Rise of the Slime May 20, 2021 $7.49N/A (N/A)0 .. 20,0000%00:00 (00:00)Bunkovsky GamesPlaystack
387 Metaverse: Origins May 17, 2021 $9.99N/A (N/A)0 .. 20,0000%00:00 (00:00)Penumbra.techPenumbra.tech
388 Killer 19 Feb 6, 2021 $2.99N/A (N/A)20,000 .. 50,0000%00:00 (00:00)SkyLine Studio, 熊昊思成, 徐熙尧SkyLine Studio
389 Chroma Quaternion May 6, 2021 $9.74N/A (N/A)0 .. 20,0000%00:00 (00:00)Exe Create Inc.KEMCO
390 Keezeh The Spector of Time May 2, 2021 $5.99N/A (N/A)0 .. 20,0000%00:00 (00:00)rabbani prottoychalidus
391 Age of Fear 4: The Iron Killer Apr 30, 2021 $14.99N/A (N/A)0 .. 20,0000%00:00 (00:00)Leslaw SliwkoAge of Fear
392 Heaven vs Hell Apr 27, 2021 $2.49N/A (N/A)0 .. 20,0000%00:00 (00:00)Neex GamesGreenolor Studio
393 Elixir of Life Apr 26, 2021 $1.39N/A (N/A)0 .. 20,0000%00:00 (00:00)Gurcan GamesGurcan Games
394 Katja's Abyss: Tactics Apr 23, 2021 $2.49N/A (N/A)50,000 .. 100,0000%00:00 (00:00)Kiefer NemethKiefer Nemeth
395 NovaMundi: The Spear of Chaquén Apr 13, 2021 $11.69N/A (N/A)0 .. 20,0000%00:00 (00:00)Slashware InteractiveSlashware Interactive
396 Strike Team Gladius Apr 8, 2021 $9.99N/A (N/A)0 .. 20,0000%00:00 (00:00)Wave Light Games Inc.Wave Light Games Inc.
397 Sentinel: Cursed Knight Apr 8, 2021 $1.99N/A (N/A)100,000 .. 200,0000%00:00 (00:00)Sentinel StudiosSentinel Studios
398 Tactical Battle Chronicles: Prelude to a War Apr 7, 2021 $14.99N/A (N/A)0 .. 20,0000%00:00 (00:00)Andrew GardnerAndrew Gardner
399 Colony Ship: A Post-Earth Role Playing Game Apr 6, 2021 $19.99N/A (N/A)50,000 .. 100,0000%00:00 (00:00)Iron Tower StudioIron Tower Studio
400 FPS Tactics Apr 5, 2021 $0.99N/A (N/A)50,000 .. 100,0000%00:00 (00:00)HedeHede
401 Chesstle Apr 2, 2021 $4.99N/A (N/A)0 .. 20,0000%00:00 (00:00)Devil Kitty Games, LLCDevil Kitty Games, LLC
402 下一站江湖Ⅰ Apr 1, 2021 $13.99N/A (N/A)0 .. 20,0000%00:00 (00:00)白玉京工作室成都搜发互娱网络科技有限公司
403 Dee-6: Dice Defenders Mar 31, 2021 $3.24N/A (N/A)0 .. 20,0000%00:00 (00:00)KBA3u's factoryKBA3u's factory
404 Insanium Mar 31, 2021 $3.99N/A (N/A)20,000 .. 50,0000%00:00 (00:00)Conan McPhee, Joe AssiCatsmeat Studios
405 REM Cycles Mar 31, 2021 $14.99N/A (N/A)0 .. 20,0000%00:00 (00:00)Indispensable StudiosIndispensable Studios
406 Apollyon: River of Life Mar 31, 2021 $12.74N/A (N/A)0 .. 20,0000%00:00 (00:00)ThuynderThuynder
407 Dragon Blast - Crazy Action Super Hero Game Mar 26, 2021 $0.99N/A (N/A)0 .. 20,0000%00:00 (00:00)Blazio StudiosUY Studios
408 守卫魔兽-Guardian of Warcraft Mar 26, 2021 $6.99N/A (N/A)0 .. 20,0000%00:00 (00:00)长生长生
409 Black Legend Mar 25, 2021 $9.99N/A (N/A)20,000 .. 50,0000%00:00 (00:00)WarcaveWarcave
410 Burg Battle Mar 22, 2021 $9.99N/A (N/A)0 .. 20,0000%00:00 (00:00)ElevenSeventy, LLCElevenSeventy, LLC
411 Realms of Antiquity: The Shattered Crown Dec 29, 2020 $20N/A (N/A)0 .. 20,0000%00:00 (00:00)Adam HaaseQuixotic Software
412 Battle for Esturia Mar 19, 2021 $3.99N/A (N/A)0 .. 20,0000%00:00 (00:00)Esturia GamesEsturia Games
413 Golden Fall 2 Mar 18, 2021 $3.59N/A (N/A)0 .. 20,0000%00:00 (00:00)Ofer RubinsteinOfer Rubinstein
414 Magellania Mar 18, 2021 $5.99N/A (N/A)50,000 .. 100,0000%00:00 (00:00)IllunsoftIllunsoft
415 Majestic Trials Mar 11, 2021 $7.49N/A (N/A)50,000 .. 100,0000%00:00 (00:00)Alpha Strike Games LimitedAlpha Strike Games Limited
416 ChessLocke Mar 4, 2021 $3.49N/A (N/A)0 .. 20,0000%00:00 (00:00)Taylor HattonTaylor "Loxxulus" Hatton
417 Synth War Tactics Mar 2, 2021 $0.99N/A (N/A)0 .. 20,0000%00:00 (00:00)Bryce HochstedlerBryce Hochstedler
418 Urtuk: The Desolation Feb 27, 2021 $9.99N/A (N/A)20,000 .. 50,0000%00:00 (00:00)David KaletaDavid Kaleta
419 Kitty Tactics Feb 24, 2021 $1.99N/A (N/A)20,000 .. 50,0000%00:00 (00:00)Ibe DenauxIbe Denaux
420 Might is Right Feb 19, 2021 $6.99N/A (N/A)0 .. 20,0000%00:00 (00:00)Lazy KittyLazy Kitty
421 Steven Universe: Unleash the Light Feb 19, 2021 $16.24N/A (N/A)50,000 .. 100,0000%00:00 (00:00)Grumpyface StudiosCartoon Network Games
422 Shores Unknown Feb 17, 2021 $12.99N/A (N/A)0 .. 20,0000%00:00 (00:00)VallynneHitcents
423 Bravery Network Online Feb 16, 2021 $14.99N/A (N/A)0 .. 20,0000%00:00 (00:00)GLOAMGLOAM
424 ROGUERIA: Roguelikes X Tactics Feb 13, 2021 $14.49N/A (N/A)0 .. 20,0000%00:00 (00:00)Waxycorn Studio.Waxycorn Studio.
425 CELLAR | Roguelike + Quest Feb 10, 2021 $4.99N/A (N/A)20,000 .. 50,0000%00:00 (00:00)Pavel DivnenkoPavel Divnenko
426 Magical Battle Cry Feb 8, 2021 $13.99N/A (N/A)50,000 .. 100,0000%00:00 (00:00)羲和工作室羲和工作室
427 Hell Shuffle Feb 5, 2021 $7.49N/A (N/A)0 .. 20,0000%00:00 (00:00)ICE TICE T
428 Cartridge Monsters Feb 4, 2021 FreeN/A (N/A)20,000 .. 50,0000%00:00 (00:00)Happenstance GamesHappenstance Games
429 Fractalis Feb 2, 2021 $5.99N/A (N/A)20,000 .. 50,0000%00:00 (00:00)Revolutionary InteractiveRevolutionary Interactive
430 No.L85 Feb 2, 2021 FreeN/A (N/A)0 .. 20,0000%00:00 (00:00)LiZhengLiZheng
431 Red Hands – 2-Player Game Jan 29, 2021 $2.49N/A (N/A)20,000 .. 50,0000%00:00 (00:00)PeakselPeaksel
432 鬼谷八荒 Tale of Immortal Jan 27, 2021 $15.99N/A (N/A)10,000,000 .. 20,000,0003.17%02:48 (00:34)鬼谷工作室鬼谷工作室, Lightning Games
433 Utawarerumono: Prelude to the Fallen Jan 22, 2021 $29.99N/A (N/A)0 .. 20,0000%00:00 (00:00)AQUAPLUSDMM GAMES, Shiravune
434 Gemini Strategy Origin Jan 13, 2021 $2.49N/A (N/A)0 .. 20,0000%00:00 (00:00)Gemini Stars GamesHappy Max
435 Kingdom Heroes 8 Jan 12, 2021 $20.99N/A (N/A)200,000 .. 500,0000%00:00 (00:00)USERJOY Technology Co.,Ltd.USERJOY Technology Co.,Ltd.
436 Shards of Feyra Jan 10, 2021 $0.99N/A (N/A)20,000 .. 50,0000%00:00 (00:00)Feyra OnlineFeyra Online
437 Hero by Chance Jan 8, 2021 $1.29N/A (N/A)100,000 .. 200,0000%00:00 (00:00)Reborn EntertainmentReborn Entertainment
438 Two Die Jan 6, 2021 $2.49N/A (N/A)0 .. 20,0000%00:00 (00:00)Jon Lamont, Jon BraunJon Lamont, Jon Braun
439 ZombieWave-UnlimitedChallenges Dec 20, 2020 $1.99N/A (N/A)100,000 .. 200,0000%00:00 (00:00)AlloyStoveAlloyStove
440 列传:革新战争 Jan 6, 2021 $6.45N/A (N/A)20,000 .. 50,0000%00:00 (00:00)Ash Game StudioDreamStep
441 Caravaneer 2 Dec 7, 2014 $5.99N/A (N/A)50,000 .. 100,0000%00:00 (00:00)Dmitry ZheltobriukhovDmitry Zheltobriukhov
442 Sink Again Dec 17, 2020 N/AN/A (N/A)20,000 .. 50,0000%00:00 (00:00)FlatcoonFlatcoon
443 Unsung Story Dec 17, 2020 $29.99N/A (N/A)0 .. 20,0000%00:00 (00:00)Little OrbitLittle Orbit
444 Terra Randoma Dec 17, 2020 $11.24N/A (N/A)0 .. 20,0000%00:00 (00:00)Deniz K.Deniz K.
445 Arcanium: Rise of Akhan Dec 8, 2020 $16.99N/A (N/A)0 .. 20,0000%00:00 (00:00)Supercombo, Inc.Rogue Games, Inc.
446 Guildmaster: Gratuitous Subtitle Dec 7, 2020 $3.49N/A (N/A)0 .. 20,0000%00:00 (00:00)Jim Makes GamesJim Makes Games
447 Ruinverse Dec 3, 2020 $8.99N/A (N/A)0 .. 20,0000%00:00 (00:00)Exe Create Inc.KEMCO
448 Mini War - Three Kingdoms Nov 30, 2020 $0.99N/A (N/A)0 .. 20,0000%00:00 (00:00)YangZeyuYangZeyu
449 Kilta Nov 20, 2020 $12.99N/A (N/A)0 .. 20,0000%00:00 (00:00)myTrueSoundmyTrueSound
450 Eterna: Heroes Fall Nov 19, 2020 $24.99N/A (N/A)0 .. 20,0000%00:00 (00:00)Zu DigitalZu Digital
451 Eldrador Creatures Nov 19, 2020 $9.99N/A (N/A)0 .. 20,0000%00:00 (00:00)Independent Arts Software GmbHWild River Games
452 Myth Bearer Nov 10, 2020 $1.79N/A (N/A)0 .. 20,0000%00:00 (00:00)JC BaileyJC Bailey
453 Raiders! Forsaken Earth Nov 10, 2020 $4.99N/A (N/A)50,000 .. 100,0000%00:00 (00:00)Creative Storm Entertainment CreativeForge Games
454 Crystal Ortha Nov 5, 2020 $14.99N/A (N/A)20,000 .. 50,0000%00:00 (00:00)Hit-Point Co.,Ltd.KEMCO
455 Fantasy Grounds Unity Nov 5, 2020 $29.99N/A (N/A)20,000 .. 50,0000%00:00 (00:00)SmiteWorks USA, LLCSmiteWorks USA, LLC
456 Battle Hunters Nov 4, 2020 $14.99N/A (N/A)0 .. 20,0000%00:00 (00:00)Phase Two Games Pty. Ltd.Phase Two Games Pty. Ltd.
457 Kingdom Of Force Nov 1, 2020 $6.99N/A (N/A)0 .. 20,0000%00:00 (00:00)Beijing Hydra Technology Co., Ltd.Beijing Hydra Technology Co., Ltd.
458 REALITY Oct 30, 2020 $1.99N/A (N/A)0 .. 20,0000%00:00 (00:00)LunaRolexLerLunaRolexLer
459 Frag Oct 29, 2020 $5.99N/A (N/A)0 .. 20,0000%00:00 (00:00)ZuleZule
460 October Night Games Oct 29, 2020 $15.99N/A (N/A)0 .. 20,0000%00:00 (00:00)Octobear Knight GamesWhisperGames
461 Arcante Oct 27, 2020 $4.79N/A (N/A)20,000 .. 50,0000%00:00 (00:00)Luca FavanoLuca Favano
462 Dread Nautical Oct 27, 2020 $5.99N/A (N/A)0 .. 20,0000%00:00 (00:00)Zen StudiosZen Studios
463 Clouds of Rain Oct 23, 2020 $2.99N/A (N/A)20,000 .. 50,0000%00:00 (00:00)Graphic Line GamesGraphic Line Games
464 The Dungeon Beneath Oct 23, 2020 $5.99N/A (N/A)0 .. 20,0000%00:00 (00:00)Puzzle Box GamesPuzzle Box Games
465 Mystic Hammer Oct 23, 2020 $1.49N/A (N/A)0 .. 20,0000%00:00 (00:00)PozziSoftPozziSoft
466 TRANSFORMERS: BATTLEGROUNDS Oct 22, 2020 $12.49N/A (N/A)0 .. 20,0000%00:00 (00:00)CoatsinkOutright Games Ltd.
467 AbsentedAge: Squarebound Oct 22, 2020 $12.99N/A (N/A)50,000 .. 100,0000%00:00 (00:00)terunon's Labterunon's Lab
468 Tenderfoot Tactics Oct 21, 2020 $8.24N/A (N/A)0 .. 20,0000%00:00 (00:00)Badru, Michael Bell, Isa Hutchinson, Taylor Thomas, Zoe Vartanian, Madison PatheIce Water Games
469 This Is Not Chess Oct 20, 2020 $7.19N/A (N/A)20,000 .. 50,0000%00:00 (00:00)Courtney DawsonCourtney Dawson
470 Kingdom Rush Vengeance - Tower Defense Oct 15, 2020 $13.99N/A (N/A)200,000 .. 500,00014.29%04:49 (03:12)Ironhide Game StudioIronhide Game Studio
471 Partisans 1941 Oct 14, 2020 $5.99N/A (N/A)200,000 .. 500,0000%00:00 (00:00)Alter GamesDaedalic Entertainment
472 PAGO FOREST: TOWER DEFENSE Oct 13, 2020 $5.99N/A (N/A)0 .. 20,0000%00:00 (00:00)FuturtechNova's Army
473 Dragon Lapis Oct 1, 2020 $14.99N/A (N/A)0 .. 20,0000%00:00 (00:00)Exe Create Inc.KEMCO
474 蜀山幻剑录 Sword of Shushan Sep 24, 2020 $9.99N/A (N/A)0 .. 20,0000%00:00 (00:00)星罗云布工作室星罗云布工作室
475 Spacer: Legacies Sep 23, 2020 $18.99N/A (N/A)0 .. 20,0000%00:00 (00:00)Brazen LegionsBrazen Legions
476 Infectra Sep 22, 2020 $4.99N/A (N/A)0 .. 20,0000%00:00 (00:00)Boar-in-gamesOrdinary Pine Studio
477 A Gay Love Story About Gay Love Sep 14, 2020 $0.84N/A (N/A)20,000 .. 50,0000%00:00 (00:00)Sigyaad TeamSigyaad Team
478 Disgaea 4 Complete+ Sep 10, 2020 $19.99N/A (N/A)20,000 .. 50,0000%00:00 (00:00)Nippon Ichi Software, Inc.NIS America, Inc.
479 Necromunda: Underhive Wars Sep 7, 2020 $5.99N/A (N/A)100,000 .. 200,00025%04:14 (02:07)Rogue FactorFocus Entertainment
480 Final Hope: The Plot Sep 3, 2020 $5.99N/A (N/A)0 .. 20,0000%00:00 (00:00)Djamp GamesDjamp Games
481 Lost Patrol Sep 2, 2020 $5.99N/A (N/A)100,000 .. 200,0000%00:00 (00:00)Shadow DevelopmentPixel Games UK
482 Hell Pub Sep 1, 2020 $1.99N/A (N/A)0 .. 20,0000%00:00 (00:00)BJ StudioBJ Studio
483 Time Break Chronicles Sep 1, 2020 $9.74N/A (N/A)50,000 .. 100,0000%00:00 (00:00)Warrior General Games, LLCWarrior General Games, LLC
484 Liege Dragon Aug 30, 2020 $8.24N/A (N/A)100,000 .. 200,0000%00:00 (00:00)Exe Create Inc.KEMCO
485 经天纪 Aug 23, 2020 $0.99N/A (N/A)20,000 .. 50,0000%00:00 (00:00)神经虾工作组欢乐不二
486 Battle Sweeper Aug 13, 2020 $0.99N/A (N/A)0 .. 20,0000%00:00 (00:00)AlpaSun GamesAlpaSun Games
487 For the People Aug 13, 2020 $6.79N/A (N/A)20,000 .. 50,0000%00:00 (00:00)Brezg Studio101XP
488 Canon - Legend of the New Gods Aug 7, 2020 $4.19N/A (N/A)0 .. 20,0000%00:00 (00:00)Super Fighter TeamPiko Interactive, Bleem!
489 Warriors of the Nile Aug 7, 2020 $6.49N/A (N/A)200,000 .. 500,0000%00:00 (00:00)Stove StudioGamera Games
490 Aye Aye, Captain Aug 4, 2020 $0.74N/A (N/A)0 .. 20,0000%00:00 (00:00)North State GamesNorth State Games
491 Westminster Darkly Aug 1, 2020 $3.99N/A (N/A)0 .. 20,0000%00:00 (00:00)Studio IncorrectStudio Incorrect
492 Fae Tactics Jul 31, 2020 $9.99N/A (N/A)50,000 .. 100,0000%00:00 (00:00)Endlessfluff GamesHumble Games
493 Chicken Bomb Jul 29, 2020 $0.99N/A (N/A)0 .. 20,0000%00:00 (00:00)GoesSoftGoesSoft
494 100-Level Dungeon Jul 23, 2020 $0.59N/A (N/A)20,000 .. 50,0000%00:00 (00:00)Jonathan.SJonathan.S
495 大千世界 Jul 17, 2020 $3.39N/A (N/A)200,000 .. 500,0000%00:00 (00:00)滑稽工作室滑稽工作室
496 最后的大法师 光明之旅(Last Archmage Journey of Light) Jul 16, 2020 $6.99N/A (N/A)20,000 .. 50,0000%00:00 (00:00)Flying Star GamesFlying Star Games
497 AVRACH RESURRECTION Jul 15, 2020 $9.99N/A (N/A)100,000 .. 200,0000%00:00 (00:00)Fluffy BisonsFluffy Bisons
498 Dark Bestiary Jul 12, 2020 $11.99N/A (N/A)20,000 .. 50,0000%00:00 (00:00)QdQd
499 ARIA CHRONICLE Jul 11, 2020 $14.39N/A (N/A)50,000 .. 100,0000%00:00 (00:00)STUDIO N9CREST
500 Little Town Hero Jul 9, 2020 $24.99N/A (N/A)0 .. 20,0000%00:00 (00:00)GAME FREAK inc.GAME FREAK inc.
501 Apprentice Arriving Jul 7, 2020 $12.99N/A (N/A)100,000 .. 200,0000%00:00 (00:00)Jewel Seeker EntertainmentJewel Seeker Entertainment
502 Stellaren II Jul 5, 2020 $3.99N/A (N/A)0 .. 20,0000%00:00 (00:00)nineduxninedux
503 Droid Guier Jun 30, 2020 $0.99N/A (N/A)0 .. 20,0000%00:00 (00:00)Caztellary StudioCaztellary Studio
504 Angels on Tanks Jun 23, 2020 $14.99N/A (N/A)0 .. 20,0000%00:00 (00:00)Ninju GamesNinju Games
505 DungeonTop Jun 21, 2020 $11.19N/A (N/A)20,000 .. 50,0000%00:00 (00:00)One Up Plus EntertainmentOne Up Plus Entertainment
506 WARBORN Jun 12, 2020 $7.49N/A (N/A)0 .. 20,0000%00:00 (00:00)Raredrop Games LtdPQube
507 The Dungeon Paradox Jun 2, 2020 $14.44N/A (N/A)0 .. 20,0000%00:00 (00:00)Digital SoftwareDigital Software
508 Tales Of Glory May 30, 2020 $14.99N/A (N/A)0 .. 20,0000%00:00 (00:00)BlackTale GamesBlackTale Games
509 Rugby League Team Manager 3 May 28, 2020 $19.99N/A (N/A)0 .. 20,0000%00:00 (00:00)Alternative Software LtdAlternative Software Ltd
510 Strategic Mind: Blitzkrieg May 22, 2020 $23.99N/A (N/A)20,000 .. 50,0000%00:00 (00:00)Starni GamesStarni Games
511 Cyber Ops May 21, 2020 $2.99N/A (N/A)20,000 .. 50,0000%00:00 (00:00)Octeto StudiosGames Operators
512 Moonfall May 20, 2020 $4.99N/A (N/A)0 .. 20,0000%00:00 (00:00)Zak AmanaZak Amana
513 Boston AInamics May 18, 2020 $0.99N/A (N/A)0 .. 20,0000%00:00 (00:00)HedeHede
514 Rise of the Foederati May 4, 2020 $8.9N/A (N/A)0 .. 20,0000%00:00 (00:00)Genos StudiosGenos Studios
515 Koi Unleashed Apr 29, 2020 N/AN/A (N/A)0 .. 20,0000%00:00 (00:00)Wild GripWild Grip
516 Prime & Load : 1776 Apr 25, 2020 $6.39N/A (N/A)20,000 .. 50,0000%00:00 (00:00)Radio Silence EntertainmentRadio Silence Entertainment
517 XCOM: Chimera Squad Apr 23, 2020 $4.99N/A (N/A)500,000 .. 1,000,0001.92%07:34 (02:31)Firaxis Games2K
518 TROUBLESHOOTER: Abandoned Children Apr 23, 2020 $14.99N/A (N/A)200,000 .. 500,00012.5%00:54 (00:18)DandylionDandylion
519 Warhammer Underworlds: Online Apr 21, 2020 $0.99N/A (N/A)20,000 .. 50,0000%00:00 (00:00)Steel Sky ProductionsSteel Sky Productions
520 Survival Africa Apr 17, 2020 $16.99N/A (N/A)0 .. 20,0000%00:00 (00:00)Dean ThomasMeanDean Gaming
521 Fates of Ort Mar 31, 2020 $7.49N/A (N/A)0 .. 20,0000%00:00 (00:00)8BitSkull8BitSkull
522 Treachery in Beatdown City Mar 30, 2020 $7.99N/A (N/A)20,000 .. 50,0000%00:00 (00:00)Nuchallenger, HurakanWorksNuchallenger
523 Lovehammer 400 000: The Buttlerian Crusade Mar 27, 2020 $14.99N/A (N/A)0 .. 20,0000%00:00 (00:00)Nerd Commando Game StudiosNerd Commando Game Studios
524 Grand Guilds Mar 26, 2020 $3.74N/A (N/A)0 .. 20,0000%00:00 (00:00)Drix StudiosDrix Studios
525 Bonfire Mar 26, 2020 $11.69N/A (N/A)0 .. 20,0000%00:00 (00:00)MoaCubeMoaCube
526 Iron Danger Mar 25, 2020 $2.99N/A (N/A)20,000 .. 50,0000%00:00 (00:00)Action Squad StudiosDaedalic Entertainment
527 Langrisser I & II Mar 10, 2020 $24.99N/A (N/A)20,000 .. 50,0000%00:00 (00:00)Chara-ani CorporationNIS America, Inc.
528 Horizon's Gate Mar 9, 2020 $14.99N/A (N/A)50,000 .. 100,0000%00:00 (00:00)Rad CodexRad Codex
529 Frontline: Panzer Blitzkrieg! Mar 6, 2020 $3.99N/A (N/A)0 .. 20,0000%00:00 (00:00)Frontline: Games SeriesFrontline: Games Series
530 Mainframe Defenders Feb 25, 2020 $1.49N/A (N/A)200,000 .. 500,0000%00:00 (00:00)Synthetic DomainMega9pixel
531 Wasteland Remastered Feb 25, 2020 $1.64N/A (N/A)0 .. 20,0000%00:00 (00:00)inXile Entertainment, Krome StudiosinXile Entertainment
532 RaidTitans Feb 6, 2020 $4.49N/A (N/A)0 .. 20,0000%00:00 (00:00)RainbowStudioRainbowStudio
533 Mortal Glory Jan 29, 2020 $4.39N/A (N/A)50,000 .. 100,0000%00:00 (00:00)Redbeak GamesRedbeak Games
534 浮世万千之前世今生 Jan 28, 2020 $5.49N/A (N/A)50,000 .. 100,0000%00:00 (00:00)飞天大胖喵飞天大胖喵
535 Der Geisterturm / The Ghost Tower Jan 23, 2020 $7.49N/A (N/A)0 .. 20,0000%00:00 (00:00)Graverobber FoundationGraverobber Foundation
536 Utawarerumono: Mask of Truth Jan 23, 2020 $9.99N/A (N/A)20,000 .. 50,0000%00:00 (00:00)AQUAPLUSDMM GAMES, Shiravune
537 Utawarerumono: Mask of Deception Jan 23, 2020 $9.99N/A (N/A)20,000 .. 50,00016.67%00:01 (00:00)AQUAPLUSDMM GAMES, Shiravune
538 Graywalkers: Purgatory Jan 15, 2020 $24.99N/A (N/A)0 .. 20,0000%00:00 (00:00)Dreamlords Digital Inc.Dreamlords Digital Inc.
539 Vestaria Saga I: War of the Scions Dec 27, 2019 $19.99N/A (N/A)20,000 .. 50,0000%00:00 (00:00)Vestaria ProjectDANGEN Entertainment, Gamera Games
540 Dinodrifters Dec 20, 2019 $9.99N/A (N/A)0 .. 20,0000%00:00 (00:00)Jake Hugh Reece WilsonTrywelyn Productions
541 Day of Dragons Dec 4, 2019 $14.99N/A (N/A)100,000 .. 200,0000%00:00 (00:00)Beawesome GamesBeawesome Games
542 Familia May 1, 2020 $3.99N/A (N/A)50,000 .. 100,0000%00:00 (00:00)Maui Game Studio, Code MoraMaui Interactive, LLC
543 Steam Marines 2 Nov 20, 2019 $24.99N/A (N/A)0 .. 20,0000%00:00 (00:00)Worthless BumsWorthless Bums
544 Time For Quest Nov 14, 2019 $0.79N/A (N/A)0 .. 20,0000%00:00 (00:00)Blacer Studio, Nikodem SwiderSource Byte Sp. z o.o., Blacer Studio
545 Albedon Wars Nov 7, 2019 $24.99N/A (N/A)0 .. 20,0000%00:00 (00:00)Firemill GamesFiremill Games
546 Time of the Moon Nov 1, 2019 $5.99N/A (N/A)0 .. 20,0000%00:00 (00:00)DawnfoxDawnfox
547 Strategic Mind: The Pacific Oct 25, 2019 $17.99N/A (N/A)20,000 .. 50,0000%00:00 (00:00)Starni GamesStarni Games
548 Lakeview Valley Oct 22, 2019 $1.49N/A (N/A)50,000 .. 100,0000%00:00 (00:00)Roope TamminenRoope Tamminen
549 Spaceland: Sci-Fi Indie Tactics Sep 30, 2019 $5.99N/A (N/A)50,000 .. 100,0000%00:00 (00:00)Tortuga TeamTortuga Team
550 Balance Breakers Sep 27, 2019 $9.34N/A (N/A)0 .. 20,0000%00:00 (00:00)Gamestry LabGamestry Lab
551 Royal Merchant Sep 11, 2019 $2.49N/A (N/A)0 .. 20,0000%00:00 (00:00)BadimBadim
552 First Day Sep 1, 2019 FreeN/A (N/A)50,000 .. 100,0000%00:00 (00:00)BadWolf GamesBadWolf Games
553 巅峰骑士团 Aug 15, 2019 $8.99N/A (N/A)100,000 .. 200,0000%00:00 (00:00)熊窝dodox熊窝dodox, RuiXiao
554 Knights of the Chalice Aug 10, 2009 $14.99N/A (N/A)0 .. 20,0000%00:00 (00:00)Heroic Fantasy Games Dot ComHeroic Fantasy Games Dot Com
555 RogueVerse Aug 22, 2019 $9.99N/A (N/A)0 .. 20,0000%00:00 (00:00)FoumartGamesFoumartGames
556 Dungeon Scavenger Aug 21, 2019 $5.59N/A (N/A)0 .. 20,0000%00:00 (00:00)Vidama Software LLCVidama Software LLC
557 Tactics V: "Obsidian Brigade" Aug 8, 2019 $13.99N/A (N/A)0 .. 20,0000%00:00 (00:00)From Nothing Game StudiosFrom Nothing Game Studios
558 Dead Hand Jul 26, 2019 $9.99N/A (N/A)0 .. 20,0000%00:00 (00:00)One Man Army GamesOne Man Army Games
559 To Battle!: Hell's Crusade Jul 24, 2019 $8.99N/A (N/A)0 .. 20,0000%00:00 (00:00)Filthy Peasant GamesFilthy Peasant Games
560 英雄群侠传II Jul 15, 2019 $19.99N/A (N/A)100,000 .. 200,0000%00:00 (00:00)熊窝dodox熊窝dodox, RuiXiao
561 It Stares Back Jun 25, 2019 $9.99N/A (N/A)0 .. 20,0000%00:00 (00:00)Light Arc Studio LtdLight Arc Studio Ltd
562 Golden Fall Jun 14, 2019 $0.99N/A (N/A)0 .. 20,0000%00:00 (00:00)Ofer RubinsteinOfer Rubinstein
563 GOD WARS The Complete Legend Jun 13, 2019 $29.99N/A (N/A)0 .. 20,0000%00:00 (00:00)DRAGAMI GAMES, LTD.DRAGAMI GAMES, LTD.
564 Age of Fear: The Undead King GOLD Jun 11, 2019 $14.99N/A (N/A)0 .. 20,0000%00:00 (00:00)Leslaw SliwkoAge of Fear
565 Cardlings Jun 5, 2019 $4.99N/A (N/A)0 .. 20,0000%00:00 (00:00)Clockwork ChilliClockwork Chilli
566 Between the Stars May 28, 2019 $19.49N/A (N/A)50,000 .. 100,0000%00:00 (00:00)Isolated GamesIsolated Games, Poysky Productions, WhisperGames
567 Banner of the Maid May 27, 2019 $6.79N/A (N/A)200,000 .. 500,0007.14%01:28 (00:29)Azure Flame StudioCE-Asia
568 Idle Portal Guardian May 21, 2019 $2.99N/A (N/A)0 .. 20,0000%00:00 (00:00)ThejamiryuThejamiryu Inc.
569 Light Fairytale Episode 1 May 13, 2019 $7.49N/A (N/A)50,000 .. 100,0000%00:00 (00:00)neko.worksneko.works
570 Legend of Cina Mar 29, 2019 $0.99N/A (N/A)0 .. 20,0000%00:00 (00:00)YunkaiYunkai
571 Monads Feb 15, 2019 $9.99N/A (N/A)0 .. 20,0000%00:00 (00:00)Team MonadTeam Monad
572 Element Space Feb 14, 2019 $2.49N/A (N/A)0 .. 20,0000%00:00 (00:00)Sixth VowelInca Games
573 Euclidean Skies Feb 5, 2019 $4.99N/A (N/A)0 .. 20,0000%00:00 (00:00)Miro StrakaMiro Straka
574 Dragon Iris Feb 1, 2019 $1.99N/A (N/A)0 .. 20,0000%00:00 (00:00)Leonardo M A SilvaConsttelattions
575 Nomads of the Fallen Star Jan 30, 2019 $6.49N/A (N/A)0 .. 20,0000%00:00 (00:00)Huy PhanHuy Phan
576 Rogue Empire: Dungeon Crawler RPG Jan 25, 2019 $9.74N/A (N/A)0 .. 20,0000%00:00 (00:00)Portal EntertainmentPortal Entertainment
577 Shieldwall Chronicles: Swords of the North Dec 16, 2018 $5.99N/A (N/A)20,000 .. 50,0000%00:00 (00:00)Wave Light Games Inc.Wave Light Games Inc.
578 Ancient Frontier: Steel Shadows Dec 11, 2018 $4.94N/A (N/A)0 .. 20,0000%00:00 (00:00)Fair Weather Studios, LLCFair Weather Studios, LLC
579 Royal Booty Quest Nov 22, 2018 $4.99N/A (N/A)0 .. 20,0000%00:00 (00:00)BadimBadim
580 Disgaea 5 Complete Oct 22, 2018 $11.99N/A (N/A)200,000 .. 500,0000%00:00 (00:00)Nippon Ichi Software, Inc.NIS America, Inc.
581 Vigilantes Oct 3, 2018 $5.99N/A (N/A)0 .. 20,0000%00:00 (00:00)Timeslip SoftworksTimeslip Softworks
582 Depth of Extinction Sep 27, 2018 $2.99N/A (N/A)0 .. 20,0000%00:00 (00:00)HOF StudiosHOF Studios
583 Das Geisterschiff / The Ghost Ship Sep 19, 2018 $4.99N/A (N/A)20,000 .. 50,0000%00:00 (00:00)Graverobber FoundationGraverobber Foundation
584 SFD : Rogue TRPG Aug 17, 2018 $1.59N/A (N/A)0 .. 20,0000%00:00 (00:00)icefillicefill
585 Dustwind Aug 15, 2018 $12.49N/A (N/A)20,000 .. 50,0000%00:00 (00:00)Dustwind StudiosZ-Software GmbH, Dustwind Studios
586 Sword Legacy: Omen Aug 13, 2018 $3.59N/A (N/A)20,000 .. 50,0000%00:00 (00:00)Firecast Studio, Fableware Narrative DesignTeam17 Digital Ltd
587 Star Traders: Frontiers Jul 31, 2018 $7.49N/A (N/A)100,000 .. 200,0000%00:00 (00:00)Trese BrothersTrese Brothers
588 Throw Anything Jul 26, 2018 $11.89N/A (N/A)0 .. 20,0000%00:00 (00:00)Visual LightVisual Light
589 Ganbare! Super Strikers Jul 26, 2018 $1.99N/A (N/A)0 .. 20,0000%00:00 (00:00)reserese
590 The Chronicles of Quiver Dick Jul 9, 2018 $1.94N/A (N/A)20,000 .. 50,0000%00:00 (00:00)Crankage GamesCrankage Games
591 Lost Legend Jul 2, 2018 $1.04N/A (N/A)20,000 .. 50,0000%00:00 (00:00)Unhinged LLCUnhinged LLC
592 Anima: Gate of Memories - The Nameless Chronicles Jun 19, 2018 $4.99N/A (N/A)0 .. 20,0000%00:00 (00:00)Anima ProjectBadLand Publishing
593 In memory of TITAN Jun 2, 2018 $14.99N/A (N/A)0 .. 20,0000%00:00 (00:00)Valhalla Universe, Inc.XR Studio LLC
594 Spaceship Commander May 23, 2018 $9.99N/A (N/A)0 .. 20,0000%00:00 (00:00)Sokolov Yaroslav VladimirovichSokolov Yaroslav Vladimirovich
595 Bastard May 14, 2018 $3.59N/A (N/A)50,000 .. 100,0000%00:00 (00:00)Aterdux EntertainmentAterdux Entertainment
596 Demon's Rise - War for the Deep Apr 29, 2018 $2.79N/A (N/A)0 .. 20,0000%00:00 (00:00)Wave Light Games Inc.Wave Light Games Inc.
597 Demon's Rise - Lords of Chaos Apr 24, 2018 $2.79N/A (N/A)0 .. 20,0000%00:00 (00:00)Wave Light Games Inc.Wave Light Games Inc.
598 Tactics & Strategy Master:Joan of Arc Mar 28, 2018 $1.24N/A (N/A)20,000 .. 50,0000%00:00 (00:00)Gemini Stars GamesGemini Stars Games
599 Aplestia Feb 19, 2018 $3.19N/A (N/A)0 .. 20,0000%00:00 (00:00)Orfeas Game StudioOrfeas Game Studio
600 Ambition of the Slimes Feb 15, 2018 $1.99N/A (N/A)20,000 .. 50,0000%00:00 (00:00)altairworksFlyhigh Works, CIRCLE Entertainment
601 Necromancer Returns Feb 1, 2018 $3.99N/A (N/A)0 .. 20,0000%00:00 (00:00)Greenolor StudioGreenolor Studio
602 Once upon a Dungeon Jan 19, 2018 $4.99N/A (N/A)0 .. 20,0000%00:00 (00:00)Koto GamesKoto Games
603 Army of Tentacles: (Not) A Cthulhu Dating Sim: Black GOAT of the Woods Edition Jan 4, 2018 $3.4N/A (N/A)0 .. 20,0000%00:00 (00:00)Stegalosaurus Game DevelopmentStegalosaurus Game Development
604 Strike Team Hydra Dec 8, 2017 $3.49N/A (N/A)0 .. 20,0000%00:00 (00:00)Wave Light Games Inc.Wave Light Games Inc.
605 Reverse Fantasy Legend Nov 23, 2017 $11.2N/A (N/A)0 .. 20,0000%00:00 (00:00)废材炼金术士废材炼金术士
606 Willy-Nilly Knight Nov 10, 2017 $4.19N/A (N/A)20,000 .. 50,0000%00:00 (00:00)Double Dice GamesDouble Dice Games
607 Reprogram Nov 9, 2017 $6.99N/A (N/A)0 .. 20,0000%00:00 (00:00)KompilerKompiler
608 Lost Dimension Oct 30, 2017 $6.24N/A (N/A)20,000 .. 50,0000%00:00 (00:00)FURYU CorporationGhostlight LTD
609 Bionic Battle Mutants Oct 24, 2017 $4.99N/A (N/A)20,000 .. 50,0000%00:00 (00:00)MonkeyneticsMonkeynetics
610 Warbanners Oct 18, 2017 $5.99N/A (N/A)20,000 .. 50,0000%00:00 (00:00)Crasleen GamesCrasleen Games
611 Beastmancer Oct 5, 2017 $2.49N/A (N/A)0 .. 20,0000%00:00 (00:00)AutarcaAutarca
612 Ancient Frontier Sep 21, 2017 $4.99N/A (N/A)0 .. 20,0000%00:00 (00:00)Fair Weather Studios, LLCFair Weather Studios, LLC
613 Legion Tale Sep 20, 2017 $1.99N/A (N/A)50,000 .. 100,0000%00:00 (00:00)Maulidan GamesMaulidan Games
614 Garden Tale Sep 13, 2017 $1.99N/A (N/A)20,000 .. 50,0000%00:00 (00:00)Bonion GamesPLAYISM
615 Steam Tactics Sep 12, 2017 $4.99N/A (N/A)0 .. 20,0000%00:00 (00:00)Igor RashkuevIgor Rashkuev
616 Age of Fear 3: The Legend Sep 1, 2017 $14.99N/A (N/A)0 .. 20,0000%00:00 (00:00)Leslaw SliwkoAge of Fear
617 Weaves of Fate Aug 3, 2017 $3.99N/A (N/A)20,000 .. 50,0000%00:00 (00:00)Tom KingstonTom Kingston
618 Metal as Phuk Jul 13, 2017 $2.49N/A (N/A)0 .. 20,0000%00:00 (00:00)Crankage GamesCrankage Games
619 Brigand: Oaxaca Jul 11, 2017 $3.59N/A (N/A)1,000,000 .. 2,000,0000%00:00 (00:00)Brian Lancaster, Laughing Coyote SoftwareBrian Lancaster, Laughing Coyote Software
620 Monsters' Den: Godfall Jul 6, 2017 $5.09N/A (N/A)50,000 .. 100,0000%00:00 (00:00)MonstrumMonstrum
621 Swords and Sandals 2 Redux Jun 29, 2017 $6.29N/A (N/A)50,000 .. 100,0000%00:00 (00:00)Whiskeybarrel StudioseGames.com
622 Alvora Tactics Jun 1, 2017 $7.49N/A (N/A)0 .. 20,0000%00:00 (00:00)Rad CodexRad Codex
623 NEXT JUMP: Shmup Tactics Apr 28, 2017 $1.69N/A (N/A)50,000 .. 100,0000%00:00 (00:00)Post Mortem PixelsPost Mortem Pixels
624 Tokyo Twilight Ghost Hunters Daybreak: Special Gigs Mar 17, 2017 $2.99N/A (N/A)20,000 .. 50,0000%00:00 (00:00)Arc System Works, TOYBOX Inc.PQube
625 Wacky Spores: The Chase Feb 10, 2017 $8.99N/A (N/A)0 .. 20,0000%00:00 (00:00)Lorenzo BellincampiLorenzo Bellincampi
626 Hellenica Jan 23, 2017 $9.99N/A (N/A)0 .. 20,0000%00:00 (00:00)The DragonloftThe Dragonloft
627 Magi Mar 21, 2007 $2.49N/A (N/A)0 .. 20,0000%00:00 (00:00)MoaCubeMoaCube
628 Alien Shooter TD Jan 13, 2017 $2.99N/A (N/A)50,000 .. 100,0000%00:00 (00:00)Sigma Team Inc.Sigma Team Inc.
629 Low Magic Age Jan 10, 2017 $5.99N/A (N/A)100,000 .. 200,00012.5%00:22 (00:07)Low Magic StudiosLow Magic Studios
630 Advanced Gaming Platform::Epica Dec 22, 2016 $19.99N/A (N/A)0 .. 20,0000%00:00 (00:00)AGP::StudiosAGP::Studios
631 Moekuri: Adorable + Tactical SRPG Dec 16, 2016 $4.79N/A (N/A)20,000 .. 50,0000%00:00 (00:00)MokyuSoftCulture Select
632 Castle Battles Dec 16, 2016 $9.99N/A (N/A)0 .. 20,0000%00:00 (00:00)Light Arc Studio LtdLight Arc Studio Ltd
633 Gladiator Trainer Nov 25, 2016 $1.13N/A (N/A)100,000 .. 200,0000%00:00 (00:00)Pilgrim AdventuresSenpai Studios
634 Disgraced Jun 20, 2016 $6.49N/A (N/A)50,000 .. 100,0000%00:00 (00:00)Corrosive Studios LLCCorrosive Studios LLC
635 Dungeon Rats Nov 4, 2016 $1.24N/A (N/A)50,000 .. 100,0000%00:00 (00:00)Iron Tower StudioIron Tower Studio
636 Farabel Oct 14, 2016 $0.99N/A (N/A)0 .. 20,0000%00:00 (00:00)FrogamesFrogames, Goblinz Digital, indienova
637 Stellar Tactics Sep 22, 2016 $11.99N/A (N/A)50,000 .. 100,00033.33%00:43 (00:43)Maverick GamesMaverick Games
638 Sorcerer King: Rivals Sep 22, 2016 $9.99N/A (N/A)50,000 .. 100,0000%00:00 (00:00)Stardock EntertainmentStardock Entertainment
639 Wooden House Sep 5, 2016 $0.49N/A (N/A)100,000 .. 200,0000%00:00 (00:00)GDNomaDGDNomaD
640 The Storm Guard: Darkness is Coming Aug 25, 2016 $13.39N/A (N/A)20,000 .. 50,0000%00:00 (00:00)Bitmen StudiosBitmen Studios
641 Mugen Souls Z Aug 25, 2016 $4.99N/A (N/A)0 .. 20,0000%00:00 (00:00)Idea FactoryGhostlight LTD
642 Phantom Brave PC Jul 25, 2016 $3.99N/A (N/A)50,000 .. 100,0000%00:00 (00:00)Nippon Ichi Software, Inc.NIS America, Inc.
643 Frost Jul 5, 2016 $4.19N/A (N/A)0 .. 20,0000%00:00 (00:00)Jérôme BodinLe Studio des Ténèbres
644 Bastard Bonds Apr 29, 2016 $4.39N/A (N/A)20,000 .. 50,0000%00:00 (00:00)BigfingersBigfingers
645 Flesh Eaters May 3, 2016 $1.17N/A (N/A)500,000 .. 1,000,0000%00:00 (00:00)S.C. 16 BIT NIGHTS S.R.L.S.C. 16 BIT NIGHTS S.R.L.
646 Hyperdevotion Noire: Goddess Black Heart (Neptunia) Apr 26, 2016 $5.99N/A (N/A)100,000 .. 200,0000%00:00 (00:00)Idea Factory, Compile Heart, StingIdea Factory International
647 Age of Fear 2: The Chaos Lord GOLD Mar 27, 2016 $4.99N/A (N/A)20,000 .. 50,0000%00:00 (00:00)Leslaw SliwkoAge of Fear
648 Worlds of Chaos: Invasion Feb 10, 2016 $14.99N/A (N/A)0 .. 20,0000%00:00 (00:00)TactichaosTactichaos
649 Into the Void Dec 4, 2015 $1.99N/A (N/A)20,000 .. 50,0000%00:00 (00:00)Mozg LabsMozg Labs
650 Voidspire Tactics Nov 2, 2015 $11.24N/A (N/A)20,000 .. 50,0000%00:00 (00:00)Rad CodexRad Codex
651 Mugen Souls Oct 22, 2015 $4.99N/A (N/A)50,000 .. 100,0000%00:00 (00:00)Idea FactoryGhostlight LTD
652 Fairspace Oct 21, 2015 $0.89N/A (N/A)0 .. 20,0000%00:00 (00:00)Sub Orbital SoftwareSub Orbital Software
653 Reverse Crawl Sep 24, 2015 $0.89N/A (N/A)50,000 .. 100,0000%00:00 (00:00)Nerdook ProductionsDigerati
654 Templar Battleforce Sep 21, 2015 $4.99N/A (N/A)100,000 .. 200,0000%00:00 (00:00)Trese BrothersTrese Brothers
655 Braveland Pirate Sep 15, 2015 $2.49N/A (N/A)50,000 .. 100,0000%00:00 (00:00)Tortuga TeamTortuga Team
656 Renowned Explorers: International Society Sep 2, 2015 $7.99N/A (N/A)200,000 .. 500,0000%00:00 (00:00)Abbey GamesAbbey Games
657 Fallen: A2P Protocol Aug 14, 2015 $9.99N/A (N/A)50,000 .. 100,0000%00:00 (00:00)Red KatanaRed Katana
658 Breach & Clear: Deadline Rebirth (2016) Jul 20, 2015 $0.99N/A (N/A)100,000 .. 200,0000%00:00 (00:00)Mighty Rabbit Studios, Gun MediaGood Shepherd Entertainment, Devolver Digital
659 Age of Fear: The Undead King Jun 26, 2015 $4.99N/A (N/A)0 .. 20,0000%00:00 (00:00)Leslaw SliwkoAge of Fear
660 Centauri Sector Jun 24, 2015 $4.99N/A (N/A)0 .. 20,0000%00:00 (00:00)GNeguceanuGNeguceanu
661 Tap Heroes Jun 5, 2015 $0.74N/A (N/A)100,000 .. 200,0000%00:00 (00:00)VaragtPVaragtP
662 Waste Walkers Jun 1, 2015 $5.99N/A (N/A)20,000 .. 50,0000%00:00 (00:00)Corrosive Studios LLCCorrosive Studios LLC
663 Telepath Tactics Apr 16, 2015 $14.99N/A (N/A)0 .. 20,0000%00:00 (00:00)Sinister DesignSinister Design
664 FLAMBERGE Mar 25, 2015 $9.99N/A (N/A)0 .. 20,0000%00:00 (00:00)HYDEZEKEStardock Entertainment
665 Agarest: Generations of War 2 Feb 19, 2015 $3.99N/A (N/A)20,000 .. 50,0000%00:00 (00:00)Idea FactoryGhostlight LTD
666 Rime Berta Dec 16, 2014 $14.99N/A (N/A)20,000 .. 50,0000%00:00 (00:00)NEXT-SOFT+PLAYISM
667 Braveland Wizard Dec 4, 2014 $1.59N/A (N/A)20,000 .. 50,0000%00:00 (00:00)Tortuga TeamTortuga Team
668 Valkyria Chronicles Nov 11, 2014 $5.99N/A (N/A)500,000 .. 1,000,0000%00:00 (00:00)SEGASEGA
669 Sproggiwood Oct 24, 2014 $3.74N/A (N/A)50,000 .. 100,0000%00:00 (00:00)Freehold GamesFreehold Games
670 Fantasy Grounds Classic May 9, 2014 $29.99N/A (N/A)100,000 .. 200,0000%00:00 (00:00)SmiteWorks USA, LLCSmiteWorks USA, LLC
671 Jagged Alliance 1: Gold Edition Jun 2, 1994 $2.49N/A (N/A)20,000 .. 50,0000%00:00 (00:00)Sir-Tech, Madlab SoftwareTHQ Nordic
672 Heroes of Steel RPG Apr 23, 2014 $4.99N/A (N/A)100,000 .. 200,0000%00:00 (00:00)Trese BrothersTrese Brothers
673 Agarest: Generations of War Zero Apr 17, 2014 $3.99N/A (N/A)50,000 .. 100,0000%00:00 (00:00)Idea FactoryGhostlight LTD
674 Braveland Mar 17, 2014 $1.39N/A (N/A)5,000,000 .. 10,000,0000%00:00 (00:00)Tortuga TeamTortuga Team
675 Agarest: Generations of War Feb 4, 2014 $2.99N/A (N/A)100,000 .. 200,0000%00:00 (00:00)Idea FactoryGhostlight LTD
676 Gorky 17 Dec 31, 1999 $1.99N/A (N/A)200,000 .. 500,0000%00:00 (00:00)Topware Interactive ACE
677 Defender's Quest: Valley of the Forgotten (DX edition) Oct 30, 2012 $14.99N/A (N/A)200,000 .. 500,0000%00:00 (00:00)Level Up Labs, LLCLevel Up Labs
678 Shining Force Jan 26, 2011 $0.99N/A (N/A)20,000 .. 50,0000%00:00 (00:00)SEGASEGA
679 Shining Force II Jan 26, 2011 $0.99N/A (N/A)20,000 .. 50,0000%00:00 (00:00)SEGASEGA
680 Monsters' Den: Book of Dread Jun 1, 2008 $0.99N/A (N/A)100,000 .. 200,0000%00:00 (00:00)MonstrumMonstrum
681 7,62 High Calibre Aug 24, 2007 $0.99N/A (N/A)50,000 .. 100,0000%00:00 (00:00)ApeironFulqrum Publishing
682 Jagged Alliance 2 - Wildfire Mar 8, 2004 $2.79N/A (N/A)500,000 .. 1,000,0000%00:00 (00:00)I-deal GamesTopware Interactive
683 The Galactic Junkers Jun 30, 2022 $15.29N/A (N/A)0 .. 20,0000%00:00 (00:00)Evil Twin ArtworksGreen Man Gaming Publishing
684 Hollow's Land Dec 23, 2014 $0.5N/A (N/A)20,000 .. 50,00050%02:27 (01:13)Relax MinimalismRelax Minimalism
Overview

Tactical RPG

Games with this tag: 684
Average userscore: N/A%
Average metascore: 73.13%
Average playtime: 04:53
Total copies owned: 88,263,000
Average price: $8.38
Help

Owners: Estimated number of people owning this game. The number might be way too small for new releases and sometimes way too big for games that had free weekend event recently. Read more on About page.

Playtime: Average hours played in total per person that have actually launched this game since March 2009. This time is calculated for the whole lifetime, not for the particular year.

Average score: Average users and metacritic score for all games with this score assigned.

Average playtime: Average lifetime playtime for all games where this data is available.

Games in this genre: Self-explaining - number of games with this tag. Only inculdes games with sales data available.

Total copies owned: Refers to total copies of games with this tag acquired by users for the lifetime. Includes copies sold, downloaded for free and given out.

This number might be too small for recently released games or too big for games that had a free weekend in the last couple of months.

Graphs

Login required.

Please register or log in to see this information.

Login required.

Please register or log in to see this information.